<?xml version='1.0' encoding='UTF-8'?><gpx version="1.1" creator="JPX - https://github.com/jenetics/jpx" xmlns="http://www.topografix.com/GPX/1/1"><trk><trkseg><trkpt lat="27.8564483" lon="-15.6423467"><ele>875.0000000000001</ele><time>2026-05-02T11:00:23.998Z</time></trkpt><trkpt lat="27.8565286" lon="-15.6423612"><ele>875.0</ele><time>2026-05-02T11:00:25.998Z</time></trkpt><trkpt lat="27.8566145" lon="-15.6423772"><ele>875.0</ele><time>2026-05-02T11:00:28.998Z</time></trkpt><trkpt lat="27.8567009" lon="-15.6423982"><ele>875.0</ele><time>2026-05-02T11:00:31.999Z</time></trkpt><trkpt lat="27.8567819" lon="-15.6424226"><ele>875.0000000000001</ele><time>2026-05-02T11:00:34.999Z</time></trkpt><trkpt lat="27.8568667" lon="-15.6424303"><ele>875.0</ele><time>2026-05-02T11:00:37.998Z</time></trkpt><trkpt lat="27.8569588" lon="-15.6424119"><ele>874.6666666666667</ele><time>2026-05-02T11:00:40.998Z</time></trkpt><trkpt lat="27.8570284" lon="-15.6423445"><ele>874.3333333333334</ele><time>2026-05-02T11:00:43.999Z</time></trkpt><trkpt lat="27.857074" lon="-15.6422827"><ele>874.0</ele><time>2026-05-02T11:00:45.998Z</time></trkpt><trkpt lat="27.8571418" lon="-15.6422348"><ele>873.6666666666667</ele><time>2026-05-02T11:00:47.998Z</time></trkpt><trkpt lat="27.8572163" lon="-15.6422023"><ele>873.3333333333334</ele><time>2026-05-02T11:00:49.998Z</time></trkpt><trkpt lat="27.8572866" lon="-15.6421608"><ele>873.0</ele><time>2026-05-02T11:00:51.998Z</time></trkpt><trkpt lat="27.8573632" lon="-15.6421256"><ele>872.9999999999999</ele><time>2026-05-02T11:00:53.999Z</time></trkpt><trkpt lat="27.857442" lon="-15.6420789"><ele>873.0</ele><time>2026-05-02T11:00:55.999Z</time></trkpt><trkpt lat="27.8575334" lon="-15.6420275"><ele>873.0</ele><time>2026-05-02T11:00:57.999Z</time></trkpt><trkpt lat="27.8575915" lon="-15.6419953"><ele>873.0</ele><time>2026-05-02T11:00:58.998Z</time></trkpt><trkpt lat="27.857652" lon="-15.6419675"><ele>873.0</ele><time>2026-05-02T11:00:59.998Z</time></trkpt><trkpt lat="27.8577112" lon="-15.6419403"><ele>872.9999999999999</ele><time>2026-05-02T11:01:00.999Z</time></trkpt><trkpt lat="27.85777" lon="-15.6419108"><ele>873.0</ele><time>2026-05-02T11:01:01.998Z</time></trkpt><trkpt lat="27.8578333" lon="-15.641885"><ele>874.8</ele><time>2026-05-02T11:01:02.998Z</time></trkpt><trkpt lat="27.8578963" lon="-15.6418638"><ele>876.5999999999999</ele><time>2026-05-02T11:01:03.998Z</time></trkpt><trkpt lat="27.8580022" lon="-15.6418172"><ele>878.4000000000001</ele><time>2026-05-02T11:01:05.997Z</time></trkpt><trkpt lat="27.858101" lon="-15.6417733"><ele>880.2</ele><time>2026-05-02T11:01:07.999Z</time></trkpt><trkpt lat="27.8581895" lon="-15.6417318"><ele>882.0</ele><time>2026-05-02T11:01:09.998Z</time></trkpt><trkpt lat="27.8582715" lon="-15.6416817"><ele>882.0</ele><time>2026-05-02T11:01:11.999Z</time></trkpt><trkpt lat="27.8583577" lon="-15.6416368"><ele>882.0</ele><time>2026-05-02T11:01:13.998Z</time></trkpt><trkpt lat="27.8584495" lon="-15.6415859"><ele>882.0</ele><time>2026-05-02T11:01:15.999Z</time></trkpt><trkpt lat="27.858543" lon="-15.6415222"><ele>882.0</ele><time>2026-05-02T11:01:17.999Z</time></trkpt><trkpt lat="27.858634" lon="-15.6414672"><ele>882.0</ele><time>2026-05-02T11:01:19.999Z</time></trkpt><trkpt lat="27.8587389" lon="-15.6414285"><ele>881.4000000000001</ele><time>2026-05-02T11:01:21.999Z</time></trkpt><trkpt lat="27.8588403" lon="-15.6414013"><ele>880.8000000000001</ele><time>2026-05-02T11:01:23.998Z</time></trkpt><trkpt lat="27.858937" lon="-15.6413878"><ele>880.2</ele><time>2026-05-02T11:01:25.999Z</time></trkpt><trkpt lat="27.8590336" lon="-15.6413933"><ele>879.6</ele><time>2026-05-02T11:01:27.998Z</time></trkpt><trkpt lat="27.859143" lon="-15.6414273"><ele>879.0</ele><time>2026-05-02T11:01:29.999Z</time></trkpt><trkpt lat="27.8592428" lon="-15.6414624"><ele>879.4000000000001</ele><time>2026-05-02T11:01:31.998Z</time></trkpt><trkpt lat="27.8593394" lon="-15.6414966"><ele>879.8000000000001</ele><time>2026-05-02T11:01:33.998Z</time></trkpt><trkpt lat="27.8594472" lon="-15.6415307"><ele>880.1999999999999</ele><time>2026-05-02T11:01:35.998Z</time></trkpt><trkpt lat="27.8595731" lon="-15.6415601"><ele>880.5999999999999</ele><time>2026-05-02T11:01:38Z</time></trkpt><trkpt lat="27.8596408" lon="-15.6415671"><ele>881.0</ele><time>2026-05-02T11:01:38.997Z</time></trkpt><trkpt lat="27.859763" lon="-15.6415758"><ele>881.0</ele><time>2026-05-02T11:01:40.998Z</time></trkpt><trkpt lat="27.8598659" lon="-15.6415833"><ele>880.9999999999999</ele><time>2026-05-02T11:01:42.999Z</time></trkpt><trkpt lat="27.8599556" lon="-15.6415803"><ele>880.9999999999999</ele><time>2026-05-02T11:01:44.997Z</time></trkpt><trkpt lat="27.8600474" lon="-15.6415755"><ele>881.0</ele><time>2026-05-02T11:01:46.998Z</time></trkpt><trkpt lat="27.8601341" lon="-15.6415799"><ele>881.0</ele><time>2026-05-02T11:01:48.997Z</time></trkpt><trkpt lat="27.8602192" lon="-15.6415851"><ele>881.5000000000001</ele><time>2026-05-02T11:01:50.998Z</time></trkpt><trkpt lat="27.860303" lon="-15.6416062"><ele>882.0</ele><time>2026-05-02T11:01:52.999Z</time></trkpt><trkpt lat="27.8603874" lon="-15.6416323"><ele>882.5</ele><time>2026-05-02T11:01:54.999Z</time></trkpt><trkpt lat="27.8604691" lon="-15.6416508"><ele>883.0</ele><time>2026-05-02T11:01:56.999Z</time></trkpt><trkpt lat="27.8605491" lon="-15.6416756"><ele>883.5000000000001</ele><time>2026-05-02T11:01:58.999Z</time></trkpt><trkpt lat="27.8606305" lon="-15.6416975"><ele>884.0</ele><time>2026-05-02T11:02:00.998Z</time></trkpt><trkpt lat="27.8607118" lon="-15.6417206"><ele>884.0000000000001</ele><time>2026-05-02T11:02:02.999Z</time></trkpt><trkpt lat="27.8607943" lon="-15.6417441"><ele>884.0</ele><time>2026-05-02T11:02:04.998Z</time></trkpt><trkpt lat="27.8608895" lon="-15.641751"><ele>884.0</ele><time>2026-05-02T11:02:06.998Z</time></trkpt><trkpt lat="27.8609781" lon="-15.6417486"><ele>884.0</ele><time>2026-05-02T11:02:08.999Z</time></trkpt><trkpt lat="27.8610659" lon="-15.6417426"><ele>884.0000000000001</ele><time>2026-05-02T11:02:10.999Z</time></trkpt><trkpt lat="27.8611497" lon="-15.6417299"><ele>884.0</ele><time>2026-05-02T11:02:12.997Z</time></trkpt><trkpt lat="27.8612365" lon="-15.6417191"><ele>884.1666666666667</ele><time>2026-05-02T11:02:15Z</time></trkpt><trkpt lat="27.8613268" lon="-15.6417144"><ele>884.3333333333334</ele><time>2026-05-02T11:02:16.998Z</time></trkpt><trkpt lat="27.8614182" lon="-15.6417179"><ele>884.5</ele><time>2026-05-02T11:02:18.997Z</time></trkpt><trkpt lat="27.861504" lon="-15.6417285"><ele>884.6666666666667</ele><time>2026-05-02T11:02:20.999Z</time></trkpt><trkpt lat="27.8615921" lon="-15.6417503"><ele>884.8333333333334</ele><time>2026-05-02T11:02:22.998Z</time></trkpt><trkpt lat="27.8616802" lon="-15.6417755"><ele>885.0</ele><time>2026-05-02T11:02:24.997Z</time></trkpt><trkpt lat="27.8617674" lon="-15.6417993"><ele>886.4</ele><time>2026-05-02T11:02:26.998Z</time></trkpt><trkpt lat="27.8618516" lon="-15.6418243"><ele>887.8</ele><time>2026-05-02T11:02:28.997Z</time></trkpt><trkpt lat="27.861935" lon="-15.6418385"><ele>889.2</ele><time>2026-05-02T11:02:30.998Z</time></trkpt><trkpt lat="27.8620216" lon="-15.641869"><ele>890.6</ele><time>2026-05-02T11:02:32.998Z</time></trkpt><trkpt lat="27.8621069" lon="-15.6419081"><ele>892.0</ele><time>2026-05-02T11:02:34.999Z</time></trkpt><trkpt lat="27.862188" lon="-15.6419675"><ele>889.1666666666666</ele><time>2026-05-02T11:02:36.999Z</time></trkpt><trkpt lat="27.8622642" lon="-15.6420378"><ele>886.3333333333333</ele><time>2026-05-02T11:02:38.999Z</time></trkpt><trkpt lat="27.8623393" lon="-15.6421013"><ele>883.5</ele><time>2026-05-02T11:02:40.998Z</time></trkpt><trkpt lat="27.8624196" lon="-15.6421583"><ele>880.6666666666667</ele><time>2026-05-02T11:02:42.998Z</time></trkpt><trkpt lat="27.8624794" lon="-15.6422253"><ele>877.8333333333334</ele><time>2026-05-02T11:02:44.998Z</time></trkpt><trkpt lat="27.8625078" lon="-15.6422928"><ele>875.0</ele><time>2026-05-02T11:02:50.998Z</time></trkpt><trkpt lat="27.8625211" lon="-15.6423694"><ele>875.0000000000001</ele><time>2026-05-02T11:02:54.998Z</time></trkpt><trkpt lat="27.8624682" lon="-15.6424417"><ele>875.0</ele><time>2026-05-02T11:02:58.998Z</time></trkpt><trkpt lat="27.862409" lon="-15.6424916"><ele>875.0</ele><time>2026-05-02T11:03:01.998Z</time></trkpt><trkpt lat="27.8623361" lon="-15.6425094"><ele>875.0</ele><time>2026-05-02T11:04:44.997Z</time></trkpt><trkpt lat="27.8622685" lon="-15.6425467"><ele>875.0000000000001</ele><time>2026-05-02T11:04:49.998Z</time></trkpt><trkpt lat="27.8622437" lon="-15.642637"><ele>875.0</ele><time>2026-05-02T11:04:54.998Z</time></trkpt><trkpt lat="27.8622021" lon="-15.642726"><ele>875.0</ele><time>2026-05-02T11:04:57.997Z</time></trkpt><trkpt lat="27.8621611" lon="-15.6427805"><ele>875.0</ele><time>2026-05-02T11:04:59.999Z</time></trkpt><trkpt lat="27.8621151" lon="-15.64283"><ele>875.0</ele><time>2026-05-02T11:05:01.998Z</time></trkpt><trkpt lat="27.8620651" lon="-15.6428758"><ele>875.0</ele><time>2026-05-02T11:05:03.998Z</time></trkpt><trkpt lat="27.8620084" lon="-15.6429143"><ele>875.0</ele><time>2026-05-02T11:05:05.998Z</time></trkpt><trkpt lat="27.8619272" lon="-15.6429593"><ele>875.0</ele><time>2026-05-02T11:05:08.999Z</time></trkpt><trkpt lat="27.8618438" lon="-15.6430052"><ele>875.0</ele><time>2026-05-02T11:05:11.998Z</time></trkpt><trkpt lat="27.8618144" lon="-15.6430693"><ele>877.3333333333334</ele><time>2026-05-02T11:05:13.998Z</time></trkpt><trkpt lat="27.8618245" lon="-15.6432113"><ele>879.6666666666667</ele><time>2026-05-02T11:05:16.998Z</time></trkpt><trkpt lat="27.8618067" lon="-15.6433242"><ele>882.0</ele><time>2026-05-02T11:05:18.997Z</time></trkpt><trkpt lat="27.8617758" lon="-15.6434014"><ele>884.3333333333333</ele><time>2026-05-02T11:05:20.998Z</time></trkpt><trkpt lat="27.8617368" lon="-15.6434619"><ele>886.6666666666666</ele><time>2026-05-02T11:05:22.999Z</time></trkpt><trkpt lat="27.8616881" lon="-15.6435192"><ele>889.0</ele><time>2026-05-02T11:05:24.999Z</time></trkpt><trkpt lat="27.8616252" lon="-15.6435546"><ele>887.2857142857143</ele><time>2026-05-02T11:05:26.997Z</time></trkpt><trkpt lat="27.8615654" lon="-15.6435974"><ele>885.5714285714286</ele><time>2026-05-02T11:05:28.997Z</time></trkpt><trkpt lat="27.8615107" lon="-15.6436412"><ele>883.8571428571429</ele><time>2026-05-02T11:05:30.998Z</time></trkpt><trkpt lat="27.8614571" lon="-15.6436864"><ele>882.1428571428571</ele><time>2026-05-02T11:05:32.999Z</time></trkpt><trkpt lat="27.861396" lon="-15.6437282"><ele>880.4285714285714</ele><time>2026-05-02T11:05:34.999Z</time></trkpt><trkpt lat="27.8613367" lon="-15.6437786"><ele>878.7142857142858</ele><time>2026-05-02T11:05:36.998Z</time></trkpt><trkpt lat="27.8612838" lon="-15.6438243"><ele>877.0</ele><time>2026-05-02T11:05:38.997Z</time></trkpt><trkpt lat="27.8612288" lon="-15.6438733"><ele>877.0000000000001</ele><time>2026-05-02T11:05:40.999Z</time></trkpt><trkpt lat="27.8611744" lon="-15.6439218"><ele>877.0</ele><time>2026-05-02T11:05:42.998Z</time></trkpt><trkpt lat="27.86112" lon="-15.6439686"><ele>877.0</ele><time>2026-05-02T11:05:44.998Z</time></trkpt><trkpt lat="27.861069" lon="-15.6440184"><ele>877.0</ele><time>2026-05-02T11:05:46.998Z</time></trkpt><trkpt lat="27.861016" lon="-15.6440642"><ele>877.0</ele><time>2026-05-02T11:05:48.997Z</time></trkpt><trkpt lat="27.8609662" lon="-15.6441157"><ele>877.0000000000001</ele><time>2026-05-02T11:05:50.998Z</time></trkpt><trkpt lat="27.8609108" lon="-15.644177"><ele>877.0</ele><time>2026-05-02T11:05:52.997Z</time></trkpt><trkpt lat="27.8608563" lon="-15.6442276"><ele>836.0</ele><time>2026-05-02T11:05:54.999Z</time></trkpt><trkpt lat="27.860807" lon="-15.6442811"><ele>836.0</ele><time>2026-05-02T11:05:56.997Z</time></trkpt><trkpt lat="27.8607531" lon="-15.6443353"><ele>836.0</ele><time>2026-05-02T11:05:58.996Z</time></trkpt><trkpt lat="27.8606917" lon="-15.6443732"><ele>836.0</ele><time>2026-05-02T11:06:00.998Z</time></trkpt><trkpt lat="27.8606321" lon="-15.6444318"><ele>836.0</ele><time>2026-05-02T11:06:03.997Z</time></trkpt><trkpt lat="27.8606328" lon="-15.6445219"><ele>814.0</ele><time>2026-05-02T11:06:07.999Z</time></trkpt><trkpt lat="27.8606844" lon="-15.6445774"><ele>814.0</ele><time>2026-05-02T11:06:16.999Z</time></trkpt></trkseg><trkseg><trkpt lat="27.8748327" lon="-15.6492111"><ele>859.0</ele><time>2026-05-02T11:19:28.996Z</time></trkpt><trkpt lat="27.8748659" lon="-15.6490834"><ele>859.0000000000001</ele><time>2026-05-02T11:19:30.995Z</time></trkpt><trkpt lat="27.8748949" lon="-15.6489927"><ele>859.0000000000001</ele><time>2026-05-02T11:19:31.996Z</time></trkpt><trkpt lat="27.8749312" lon="-15.6489279"><ele>859.0</ele><time>2026-05-02T11:19:32.996Z</time></trkpt><trkpt lat="27.8749892" lon="-15.6488686"><ele>859.0</ele><time>2026-05-02T11:19:33.994Z</time></trkpt><trkpt lat="27.8750792" lon="-15.6488022"><ele>858.8000000000001</ele><time>2026-05-02T11:19:34.996Z</time></trkpt><trkpt lat="27.8751679" lon="-15.6487421"><ele>858.6000000000001</ele><time>2026-05-02T11:19:35.995Z</time></trkpt><trkpt lat="27.8752438" lon="-15.6487035"><ele>858.4</ele><time>2026-05-02T11:19:36.996Z</time></trkpt><trkpt lat="27.8753133" lon="-15.6486799"><ele>858.2</ele><time>2026-05-02T11:19:37.996Z</time></trkpt><trkpt lat="27.875423" lon="-15.648646"><ele>858.0</ele><time>2026-05-02T11:19:39.996Z</time></trkpt><trkpt lat="27.8755204" lon="-15.6485868"><ele>858.0</ele><time>2026-05-02T11:19:41.995Z</time></trkpt><trkpt lat="27.8755808" lon="-15.6485184"><ele>858.0</ele><time>2026-05-02T11:19:43.994Z</time></trkpt><trkpt lat="27.8756312" lon="-15.6484441"><ele>858.0</ele><time>2026-05-02T11:19:45.995Z</time></trkpt><trkpt lat="27.8756606" lon="-15.6483042"><ele>858.0</ele><time>2026-05-02T11:19:47.996Z</time></trkpt><trkpt lat="27.875686" lon="-15.6482101"><ele>858.0</ele><time>2026-05-02T11:19:48.996Z</time></trkpt><trkpt lat="27.8757143" lon="-15.6481362"><ele>858.0</ele><time>2026-05-02T11:19:49.995Z</time></trkpt><trkpt lat="27.8757418" lon="-15.6480721"><ele>858.0</ele><time>2026-05-02T11:19:50.996Z</time></trkpt><trkpt lat="27.8757977" lon="-15.6479833"><ele>858.0</ele><time>2026-05-02T11:19:52.994Z</time></trkpt><trkpt lat="27.8758575" lon="-15.6479225"><ele>858.0</ele><time>2026-05-02T11:19:54.996Z</time></trkpt><trkpt lat="27.8759117" lon="-15.6478722"><ele>858.0</ele><time>2026-05-02T11:19:56.995Z</time></trkpt><trkpt lat="27.875986" lon="-15.6477888"><ele>858.0</ele><time>2026-05-02T11:19:59.996Z</time></trkpt><trkpt lat="27.87606" lon="-15.6477077"><ele>859.0</ele><time>2026-05-02T11:20:01.995Z</time></trkpt><trkpt lat="27.8761182" lon="-15.6476254"><ele>860.0</ele><time>2026-05-02T11:20:03.996Z</time></trkpt><trkpt lat="27.8761902" lon="-15.6475506"><ele>861.0</ele><time>2026-05-02T11:20:18.996Z</time></trkpt><trkpt lat="27.8762458" lon="-15.6474672"><ele>862.0</ele><time>2026-05-02T11:20:20.995Z</time></trkpt><trkpt lat="27.8762774" lon="-15.6474053"><ele>863.0</ele><time>2026-05-02T11:20:21.995Z</time></trkpt><trkpt lat="27.8763049" lon="-15.6473396"><ele>864.0</ele><time>2026-05-02T11:20:22.996Z</time></trkpt><trkpt lat="27.8763563" lon="-15.6472473"><ele>864.0</ele><time>2026-05-02T11:20:24.994Z</time></trkpt><trkpt lat="27.876455" lon="-15.6471906"><ele>864.0</ele><time>2026-05-02T11:20:26.995Z</time></trkpt><trkpt lat="27.876536" lon="-15.6472064"><ele>864.0</ele><time>2026-05-02T11:20:28.995Z</time></trkpt><trkpt lat="27.8765965" lon="-15.6472387"><ele>864.0</ele><time>2026-05-02T11:20:30.996Z</time></trkpt><trkpt lat="27.8766813" lon="-15.6472668"><ele>864.0</ele><time>2026-05-02T11:20:32.995Z</time></trkpt><trkpt lat="27.8767732" lon="-15.647298"><ele>864.0</ele><time>2026-05-02T11:20:34.996Z</time></trkpt><trkpt lat="27.8768571" lon="-15.6473387"><ele>863.5</ele><time>2026-05-02T11:20:36.996Z</time></trkpt><trkpt lat="27.8769325" lon="-15.6473674"><ele>863.0</ele><time>2026-05-02T11:20:38.996Z</time></trkpt><trkpt lat="27.8770043" lon="-15.6473695"><ele>862.5</ele><time>2026-05-02T11:20:40.996Z</time></trkpt><trkpt lat="27.8770846" lon="-15.6473588"><ele>862.0</ele><time>2026-05-02T11:20:42.996Z</time></trkpt><trkpt lat="27.8771766" lon="-15.6473284"><ele>861.5</ele><time>2026-05-02T11:20:44.996Z</time></trkpt><trkpt lat="27.8772863" lon="-15.6472921"><ele>861.0</ele><time>2026-05-02T11:20:46.996Z</time></trkpt><trkpt lat="27.8773806" lon="-15.6472482"><ele>861.0</ele><time>2026-05-02T11:20:48.995Z</time></trkpt><trkpt lat="27.877483" lon="-15.6471979"><ele>860.9999999999999</ele><time>2026-05-02T11:20:50.995Z</time></trkpt><trkpt lat="27.8775824" lon="-15.6471413"><ele>860.9999999999999</ele><time>2026-05-02T11:20:52.995Z</time></trkpt><trkpt lat="27.8776383" lon="-15.6470795"><ele>861.0</ele><time>2026-05-02T11:20:54.995Z</time></trkpt><trkpt lat="27.8776772" lon="-15.6469929"><ele>861.0</ele><time>2026-05-02T11:20:56.996Z</time></trkpt><trkpt lat="27.8777171" lon="-15.6468768"><ele>866.4</ele><time>2026-05-02T11:20:58.995Z</time></trkpt><trkpt lat="27.8777663" lon="-15.6467846"><ele>871.8</ele><time>2026-05-02T11:21:00.995Z</time></trkpt><trkpt lat="27.8778301" lon="-15.6467841"><ele>877.1999999999999</ele><time>2026-05-02T11:21:01.996Z</time></trkpt><trkpt lat="27.8779539" lon="-15.6468028"><ele>882.5999999999999</ele><time>2026-05-02T11:21:03.996Z</time></trkpt><trkpt lat="27.8780466" lon="-15.646826"><ele>888.0</ele><time>2026-05-02T11:21:05.994Z</time></trkpt><trkpt lat="27.8781364" lon="-15.6468335"><ele>888.0</ele><time>2026-05-02T11:21:08.996Z</time></trkpt><trkpt lat="27.8782056" lon="-15.6468112"><ele>888.0</ele><time>2026-05-02T11:21:10.995Z</time></trkpt><trkpt lat="27.878279" lon="-15.6467695"><ele>888.0</ele><time>2026-05-02T11:21:12.995Z</time></trkpt><trkpt lat="27.8783376" lon="-15.6467158"><ele>888.0</ele><time>2026-05-02T11:21:14.995Z</time></trkpt><trkpt lat="27.8784253" lon="-15.6466757"><ele>888.0</ele><time>2026-05-02T11:21:16.995Z</time></trkpt><trkpt lat="27.8785047" lon="-15.6466498"><ele>888.0</ele><time>2026-05-02T11:21:18.994Z</time></trkpt><trkpt lat="27.8785664" lon="-15.6466206"><ele>890.0</ele><time>2026-05-02T11:21:20.996Z</time></trkpt><trkpt lat="27.8786416" lon="-15.6465569"><ele>892.0</ele><time>2026-05-02T11:21:22.996Z</time></trkpt><trkpt lat="27.8787306" lon="-15.6464883"><ele>894.0</ele><time>2026-05-02T11:21:24.996Z</time></trkpt><trkpt lat="27.8788036" lon="-15.6464435"><ele>896.0</ele><time>2026-05-02T11:21:26.996Z</time></trkpt><trkpt lat="27.8788943" lon="-15.6464139"><ele>898.0</ele><time>2026-05-02T11:21:28.994Z</time></trkpt><trkpt lat="27.8789925" lon="-15.6464553"><ele>897.9999999999999</ele><time>2026-05-02T11:21:30.996Z</time></trkpt><trkpt lat="27.8790598" lon="-15.6465458"><ele>898.0</ele><time>2026-05-02T11:21:32.993Z</time></trkpt><trkpt lat="27.879063" lon="-15.6466652"><ele>898.0</ele><time>2026-05-02T11:21:34.995Z</time></trkpt><trkpt lat="27.8790498" lon="-15.6467354"><ele>898.0</ele><time>2026-05-02T11:21:35.996Z</time></trkpt><trkpt lat="27.879024" lon="-15.6468043"><ele>897.9999999999999</ele><time>2026-05-02T11:21:36.996Z</time></trkpt><trkpt lat="27.878996" lon="-15.6469052"><ele>898.0</ele><time>2026-05-02T11:21:38.995Z</time></trkpt><trkpt lat="27.8789908" lon="-15.6469822"><ele>894.2</ele><time>2026-05-02T11:21:40.995Z</time></trkpt><trkpt lat="27.8790264" lon="-15.6471108"><ele>890.4</ele><time>2026-05-02T11:21:42.996Z</time></trkpt><trkpt lat="27.8790593" lon="-15.6472126"><ele>886.6000000000001</ele><time>2026-05-02T11:21:44.994Z</time></trkpt><trkpt lat="27.8790751" lon="-15.6473346"><ele>882.8000000000001</ele><time>2026-05-02T11:21:46.996Z</time></trkpt><trkpt lat="27.8790657" lon="-15.6474073"><ele>879.0</ele><time>2026-05-02T11:21:47.995Z</time></trkpt><trkpt lat="27.8790592" lon="-15.6475131"><ele>879.0</ele><time>2026-05-02T11:21:49.996Z</time></trkpt><trkpt lat="27.8790814" lon="-15.6475843"><ele>879.0000000000001</ele><time>2026-05-02T11:21:51.993Z</time></trkpt><trkpt lat="27.879142" lon="-15.6476593"><ele>879.0000000000001</ele><time>2026-05-02T11:21:53.995Z</time></trkpt><trkpt lat="27.8792501" lon="-15.6477224"><ele>879.0</ele><time>2026-05-02T11:21:55.996Z</time></trkpt><trkpt lat="27.8793666" lon="-15.6477585"><ele>879.0</ele><time>2026-05-02T11:21:57.994Z</time></trkpt><trkpt lat="27.8794515" lon="-15.6477809"><ele>883.8000000000001</ele><time>2026-05-02T11:21:59.996Z</time></trkpt><trkpt lat="27.8795358" lon="-15.6478468"><ele>888.6000000000001</ele><time>2026-05-02T11:22:01.995Z</time></trkpt><trkpt lat="27.8795554" lon="-15.6479642"><ele>893.4</ele><time>2026-05-02T11:22:03.995Z</time></trkpt><trkpt lat="27.8795367" lon="-15.648097"><ele>898.2</ele><time>2026-05-02T11:22:05.996Z</time></trkpt><trkpt lat="27.8795251" lon="-15.6481725"><ele>903.0</ele><time>2026-05-02T11:22:06.995Z</time></trkpt><trkpt lat="27.8795286" lon="-15.6482445"><ele>903.0</ele><time>2026-05-02T11:22:07.996Z</time></trkpt><trkpt lat="27.8795313" lon="-15.6483168"><ele>903.0</ele><time>2026-05-02T11:22:08.995Z</time></trkpt><trkpt lat="27.8795344" lon="-15.6483893"><ele>903.0</ele><time>2026-05-02T11:22:09.995Z</time></trkpt><trkpt lat="27.8795351" lon="-15.6484615"><ele>903.0</ele><time>2026-05-02T11:22:10.995Z</time></trkpt><trkpt lat="27.8795449" lon="-15.6485351"><ele>903.0</ele><time>2026-05-02T11:22:11.994Z</time></trkpt><trkpt lat="27.8795561" lon="-15.6486056"><ele>903.0</ele><time>2026-05-02T11:22:12.996Z</time></trkpt><trkpt lat="27.8795802" lon="-15.6487385"><ele>903.0</ele><time>2026-05-02T11:22:14.996Z</time></trkpt><trkpt lat="27.8796064" lon="-15.6488469"><ele>900.4</ele><time>2026-05-02T11:22:16.995Z</time></trkpt><trkpt lat="27.8796353" lon="-15.648975"><ele>897.8</ele><time>2026-05-02T11:22:18.996Z</time></trkpt><trkpt lat="27.8796438" lon="-15.649046"><ele>895.2</ele><time>2026-05-02T11:22:19.996Z</time></trkpt><trkpt lat="27.8796733" lon="-15.6491647"><ele>892.6</ele><time>2026-05-02T11:22:21.993Z</time></trkpt><trkpt lat="27.8797031" lon="-15.6492625"><ele>890.0</ele><time>2026-05-02T11:22:23.995Z</time></trkpt><trkpt lat="27.8797622" lon="-15.6493317"><ele>890.0000000000001</ele><time>2026-05-02T11:22:25.994Z</time></trkpt><trkpt lat="27.8798431" lon="-15.6493734"><ele>890.0</ele><time>2026-05-02T11:22:27.995Z</time></trkpt><trkpt lat="27.8799426" lon="-15.6493688"><ele>890.0</ele><time>2026-05-02T11:22:29.996Z</time></trkpt><trkpt lat="27.8800124" lon="-15.6493574"><ele>890.0</ele><time>2026-05-02T11:22:30.995Z</time></trkpt><trkpt lat="27.8800953" lon="-15.6493437"><ele>890.0000000000001</ele><time>2026-05-02T11:22:31.995Z</time></trkpt><trkpt lat="27.8801675" lon="-15.6493306"><ele>890.0</ele><time>2026-05-02T11:22:32.995Z</time></trkpt><trkpt lat="27.8802883" lon="-15.6492957"><ele>887.6666666666667</ele><time>2026-05-02T11:22:34.994Z</time></trkpt><trkpt lat="27.8803971" lon="-15.6492414"><ele>885.3333333333334</ele><time>2026-05-02T11:22:36.994Z</time></trkpt><trkpt lat="27.8804526" lon="-15.6492039"><ele>883.0</ele><time>2026-05-02T11:22:37.994Z</time></trkpt><trkpt lat="27.8805111" lon="-15.6491542"><ele>880.6666666666667</ele><time>2026-05-02T11:22:38.995Z</time></trkpt><trkpt lat="27.880578" lon="-15.649102"><ele>878.3333333333334</ele><time>2026-05-02T11:22:39.995Z</time></trkpt><trkpt lat="27.880639" lon="-15.6490588"><ele>876.0</ele><time>2026-05-02T11:22:40.995Z</time></trkpt><trkpt lat="27.8807336" lon="-15.6489948"><ele>876.0</ele><time>2026-05-02T11:22:42.995Z</time></trkpt><trkpt lat="27.8807967" lon="-15.6489109"><ele>875.9999999999999</ele><time>2026-05-02T11:22:44.995Z</time></trkpt><trkpt lat="27.8808278" lon="-15.6488487"><ele>875.9999999999999</ele><time>2026-05-02T11:22:45.994Z</time></trkpt><trkpt lat="27.8809128" lon="-15.648756"><ele>876.0</ele><time>2026-05-02T11:22:47.995Z</time></trkpt><trkpt lat="27.8810099" lon="-15.6487045"><ele>876.0</ele><time>2026-05-02T11:22:49.995Z</time></trkpt><trkpt lat="27.8810934" lon="-15.6486255"><ele>878.4</ele><time>2026-05-02T11:22:51.996Z</time></trkpt><trkpt lat="27.8811616" lon="-15.6485166"><ele>880.8</ele><time>2026-05-02T11:22:53.995Z</time></trkpt><trkpt lat="27.8812022" lon="-15.6484027"><ele>883.1999999999999</ele><time>2026-05-02T11:22:55.995Z</time></trkpt><trkpt lat="27.8812204" lon="-15.6482709"><ele>885.5999999999999</ele><time>2026-05-02T11:22:57.995Z</time></trkpt><trkpt lat="27.8812606" lon="-15.648169"><ele>888.0</ele><time>2026-05-02T11:22:59.996Z</time></trkpt><trkpt lat="27.8813391" lon="-15.6481062"><ele>888.0</ele><time>2026-05-02T11:23:01.996Z</time></trkpt><trkpt lat="27.8814197" lon="-15.6481378"><ele>888.0</ele><time>2026-05-02T11:23:03.995Z</time></trkpt><trkpt lat="27.8814823" lon="-15.6481759"><ele>888.0</ele><time>2026-05-02T11:23:04.995Z</time></trkpt><trkpt lat="27.8815561" lon="-15.648225"><ele>888.0</ele><time>2026-05-02T11:23:05.995Z</time></trkpt><trkpt lat="27.8816218" lon="-15.6482656"><ele>888.0</ele><time>2026-05-02T11:23:06.995Z</time></trkpt><trkpt lat="27.8816999" lon="-15.6483201"><ele>888.0</ele><time>2026-05-02T11:23:08.995Z</time></trkpt><trkpt lat="27.8817765" lon="-15.6483786"><ele>888.5999999999999</ele><time>2026-05-02T11:23:10.995Z</time></trkpt><trkpt lat="27.881878" lon="-15.6483899"><ele>889.1999999999999</ele><time>2026-05-02T11:23:13.996Z</time></trkpt><trkpt lat="27.881966" lon="-15.6483313"><ele>889.8</ele><time>2026-05-02T11:23:15.994Z</time></trkpt><trkpt lat="27.8820462" lon="-15.6482686"><ele>890.4</ele><time>2026-05-02T11:23:17.995Z</time></trkpt><trkpt lat="27.8821295" lon="-15.6482207"><ele>891.0</ele><time>2026-05-02T11:23:19.995Z</time></trkpt><trkpt lat="27.8822259" lon="-15.6481635"><ele>891.0</ele><time>2026-05-02T11:23:21.993Z</time></trkpt><trkpt lat="27.8823278" lon="-15.6481337"><ele>891.0</ele><time>2026-05-02T11:23:23.995Z</time></trkpt><trkpt lat="27.8824382" lon="-15.6481321"><ele>891.0</ele><time>2026-05-02T11:23:25.995Z</time></trkpt><trkpt lat="27.8825503" lon="-15.6481827"><ele>891.0</ele><time>2026-05-02T11:23:27.994Z</time></trkpt><trkpt lat="27.8826284" lon="-15.648288"><ele>889.1666666666666</ele><time>2026-05-02T11:23:29.996Z</time></trkpt><trkpt lat="27.8826237" lon="-15.6484351"><ele>887.3333333333333</ele><time>2026-05-02T11:23:31.995Z</time></trkpt><trkpt lat="27.8826074" lon="-15.6485052"><ele>885.5</ele><time>2026-05-02T11:23:32.996Z</time></trkpt><trkpt lat="27.8826076" lon="-15.6485895"><ele>883.6666666666666</ele><time>2026-05-02T11:23:34.996Z</time></trkpt><trkpt lat="27.8826545" lon="-15.6486576"><ele>881.8333333333333</ele><time>2026-05-02T11:23:36.996Z</time></trkpt><trkpt lat="27.8827239" lon="-15.6486872"><ele>880.0</ele><time>2026-05-02T11:23:38.995Z</time></trkpt><trkpt lat="27.8828002" lon="-15.6486787"><ele>880.0</ele><time>2026-05-02T11:23:40.995Z</time></trkpt><trkpt lat="27.8828916" lon="-15.6486283"><ele>880.0</ele><time>2026-05-02T11:23:42.994Z</time></trkpt><trkpt lat="27.8829769" lon="-15.6485796"><ele>880.0</ele><time>2026-05-02T11:23:44.995Z</time></trkpt><trkpt lat="27.883052" lon="-15.6485502"><ele>880.0</ele><time>2026-05-02T11:23:46.995Z</time></trkpt><trkpt lat="27.8831439" lon="-15.648546"><ele>880.0</ele><time>2026-05-02T11:23:48.995Z</time></trkpt><trkpt lat="27.8832409" lon="-15.6485692"><ele>880.0</ele><time>2026-05-02T11:23:50.994Z</time></trkpt><trkpt lat="27.8833155" lon="-15.6486307"><ele>880.0</ele><time>2026-05-02T11:23:52.994Z</time></trkpt><trkpt lat="27.8833795" lon="-15.648702"><ele>880.0</ele><time>2026-05-02T11:23:54.995Z</time></trkpt><trkpt lat="27.8834511" lon="-15.6487777"><ele>880.0</ele><time>2026-05-02T11:23:56.994Z</time></trkpt><trkpt lat="27.8835465" lon="-15.6488424"><ele>880.0</ele><time>2026-05-02T11:23:58.994Z</time></trkpt><trkpt lat="27.8836526" lon="-15.648909"><ele>881.0</ele><time>2026-05-02T11:24:00.995Z</time></trkpt><trkpt lat="27.8837138" lon="-15.6489394"><ele>882.0</ele><time>2026-05-02T11:24:01.994Z</time></trkpt><trkpt lat="27.8838366" lon="-15.6489732"><ele>883.0</ele><time>2026-05-02T11:24:03.995Z</time></trkpt><trkpt lat="27.8839423" lon="-15.6489727"><ele>884.0</ele><time>2026-05-02T11:24:05.995Z</time></trkpt><trkpt lat="27.8840387" lon="-15.648982"><ele>885.0</ele><time>2026-05-02T11:24:07.994Z</time></trkpt><trkpt lat="27.8841533" lon="-15.6489979"><ele>885.8</ele><time>2026-05-02T11:24:09.994Z</time></trkpt><trkpt lat="27.8842753" lon="-15.6490236"><ele>886.6</ele><time>2026-05-02T11:24:11.994Z</time></trkpt><trkpt lat="27.8843388" lon="-15.6490301"><ele>887.4000000000001</ele><time>2026-05-02T11:24:12.993Z</time></trkpt><trkpt lat="27.8844457" lon="-15.6490266"><ele>888.2</ele><time>2026-05-02T11:24:14.995Z</time></trkpt><trkpt lat="27.884549" lon="-15.6490174"><ele>889.0</ele><time>2026-05-02T11:24:16.993Z</time></trkpt><trkpt lat="27.884649" lon="-15.6490085"><ele>889.0</ele><time>2026-05-02T11:24:18.993Z</time></trkpt><trkpt lat="27.8847504" lon="-15.6490253"><ele>889.0000000000001</ele><time>2026-05-02T11:24:20.993Z</time></trkpt><trkpt lat="27.8848391" lon="-15.6490834"><ele>889.0000000000001</ele><time>2026-05-02T11:24:22.994Z</time></trkpt><trkpt lat="27.8849156" lon="-15.649125"><ele>889.0</ele><time>2026-05-02T11:24:24.994Z</time></trkpt><trkpt lat="27.8850227" lon="-15.649148"><ele>889.0</ele><time>2026-05-02T11:24:26.994Z</time></trkpt><trkpt lat="27.8850984" lon="-15.6491481"><ele>890.0</ele><time>2026-05-02T11:24:27.994Z</time></trkpt><trkpt lat="27.8851815" lon="-15.6491502"><ele>891.0000000000001</ele><time>2026-05-02T11:24:28.994Z</time></trkpt><trkpt lat="27.8852667" lon="-15.6491537"><ele>892.0000000000001</ele><time>2026-05-02T11:24:29.995Z</time></trkpt><trkpt lat="27.8853411" lon="-15.6491545"><ele>893.0</ele><time>2026-05-02T11:24:30.995Z</time></trkpt><trkpt lat="27.8854596" lon="-15.6491428"><ele>894.0</ele><time>2026-05-02T11:24:32.994Z</time></trkpt><trkpt lat="27.8855636" lon="-15.6491125"><ele>894.0</ele><time>2026-05-02T11:24:34.995Z</time></trkpt><trkpt lat="27.8856328" lon="-15.6490842"><ele>894.0000000000001</ele><time>2026-05-02T11:24:36.995Z</time></trkpt><trkpt lat="27.885705" lon="-15.6490394"><ele>894.0000000000001</ele><time>2026-05-02T11:24:38.994Z</time></trkpt><trkpt lat="27.8857981" lon="-15.6489849"><ele>894.0</ele><time>2026-05-02T11:24:40.993Z</time></trkpt><trkpt lat="27.8858959" lon="-15.6489482"><ele>894.0</ele><time>2026-05-02T11:24:42.995Z</time></trkpt><trkpt lat="27.8859954" lon="-15.6489111"><ele>898.0</ele><time>2026-05-02T11:24:44.995Z</time></trkpt><trkpt lat="27.8860809" lon="-15.6488463"><ele>902.0000000000001</ele><time>2026-05-02T11:24:46.995Z</time></trkpt><trkpt lat="27.8861779" lon="-15.6487823"><ele>906.0000000000001</ele><time>2026-05-02T11:24:48.994Z</time></trkpt><trkpt lat="27.8862572" lon="-15.6487605"><ele>910.0</ele><time>2026-05-02T11:24:50.993Z</time></trkpt><trkpt lat="27.8863495" lon="-15.6487907"><ele>914.0</ele><time>2026-05-02T11:24:52.995Z</time></trkpt><trkpt lat="27.8864149" lon="-15.6488511"><ele>914.0</ele><time>2026-05-02T11:24:54.994Z</time></trkpt><trkpt lat="27.8864476" lon="-15.648922"><ele>914.0000000000001</ele><time>2026-05-02T11:24:55.996Z</time></trkpt><trkpt lat="27.8864617" lon="-15.6490481"><ele>914.0000000000001</ele><time>2026-05-02T11:24:57.995Z</time></trkpt><trkpt lat="27.8864243" lon="-15.6491316"><ele>914.0</ele><time>2026-05-02T11:24:59.995Z</time></trkpt><trkpt lat="27.8863847" lon="-15.649251"><ele>914.0</ele><time>2026-05-02T11:25:01.993Z</time></trkpt><trkpt lat="27.8863421" lon="-15.6493567"><ele>914.0000000000001</ele><time>2026-05-02T11:25:03.995Z</time></trkpt><trkpt lat="27.8863112" lon="-15.6494556"><ele>914.0</ele><time>2026-05-02T11:25:05.994Z</time></trkpt><trkpt lat="27.8862828" lon="-15.6495646"><ele>914.0</ele><time>2026-05-02T11:25:07.994Z</time></trkpt><trkpt lat="27.8862608" lon="-15.6496442"><ele>914.0</ele><time>2026-05-02T11:25:09.994Z</time></trkpt><trkpt lat="27.886251" lon="-15.6497466"><ele>914.0000000000001</ele><time>2026-05-02T11:25:12.995Z</time></trkpt><trkpt lat="27.8862439" lon="-15.6498203"><ele>914.0</ele><time>2026-05-02T11:25:14.995Z</time></trkpt><trkpt lat="27.8862514" lon="-15.6498979"><ele>913.8333333333334</ele><time>2026-05-02T11:25:16.994Z</time></trkpt><trkpt lat="27.886273" lon="-15.6500051"><ele>913.6666666666667</ele><time>2026-05-02T11:25:19.994Z</time></trkpt><trkpt lat="27.8862981" lon="-15.650082"><ele>913.5</ele><time>2026-05-02T11:25:21.995Z</time></trkpt><trkpt lat="27.8863512" lon="-15.6501431"><ele>913.3333333333333</ele><time>2026-05-02T11:25:23.995Z</time></trkpt><trkpt lat="27.8864028" lon="-15.6501966"><ele>913.1666666666666</ele><time>2026-05-02T11:25:25.993Z</time></trkpt><trkpt lat="27.8864561" lon="-15.6502426"><ele>913.0</ele><time>2026-05-02T11:25:27.996Z</time></trkpt><trkpt lat="27.8865114" lon="-15.650291"><ele>911.8333333333333</ele><time>2026-05-02T11:25:29.995Z</time></trkpt><trkpt lat="27.8865755" lon="-15.6503569"><ele>910.6666666666666</ele><time>2026-05-02T11:25:31.994Z</time></trkpt><trkpt lat="27.8866086" lon="-15.6504291"><ele>909.5</ele><time>2026-05-02T11:25:33.995Z</time></trkpt><trkpt lat="27.8866137" lon="-15.6505151"><ele>908.3333333333333</ele><time>2026-05-02T11:25:35.995Z</time></trkpt><trkpt lat="27.8865947" lon="-15.6506018"><ele>907.1666666666666</ele><time>2026-05-02T11:25:38.995Z</time></trkpt><trkpt lat="27.8865735" lon="-15.6506959"><ele>906.0</ele><time>2026-05-02T11:25:41.995Z</time></trkpt><trkpt lat="27.8865601" lon="-15.6507711"><ele>906.0</ele><time>2026-05-02T11:25:43.994Z</time></trkpt><trkpt lat="27.8865531" lon="-15.6508572"><ele>906.0</ele><time>2026-05-02T11:25:45.993Z</time></trkpt><trkpt lat="27.886544" lon="-15.650933"><ele>906.0</ele><time>2026-05-02T11:25:47.995Z</time></trkpt><trkpt lat="27.8865187" lon="-15.6510356"><ele>906.0</ele><time>2026-05-02T11:25:50.995Z</time></trkpt><trkpt lat="27.8864778" lon="-15.6511083"><ele>906.0</ele><time>2026-05-02T11:25:52.994Z</time></trkpt><trkpt lat="27.8864158" lon="-15.6511659"><ele>906.0</ele><time>2026-05-02T11:25:54.993Z</time></trkpt><trkpt lat="27.8863452" lon="-15.6512277"><ele>905.142857142857</ele><time>2026-05-02T11:25:56.994Z</time></trkpt><trkpt lat="27.8862653" lon="-15.6512729"><ele>904.2857142857142</ele><time>2026-05-02T11:25:58.994Z</time></trkpt><trkpt lat="27.8862012" lon="-15.65131"><ele>903.4285714285714</ele><time>2026-05-02T11:26:00.994Z</time></trkpt><trkpt lat="27.8861372" lon="-15.6513563"><ele>902.5714285714286</ele><time>2026-05-02T11:26:02.995Z</time></trkpt><trkpt lat="27.8860923" lon="-15.651414"><ele>901.7142857142858</ele><time>2026-05-02T11:26:04.994Z</time></trkpt><trkpt lat="27.8860947" lon="-15.6514923"><ele>900.857142857143</ele><time>2026-05-02T11:26:06.994Z</time></trkpt><trkpt lat="27.8861394" lon="-15.6515515"><ele>900.0000000000001</ele><time>2026-05-02T11:26:08.994Z</time></trkpt><trkpt lat="27.8862013" lon="-15.6515739"><ele>900.0</ele><time>2026-05-02T11:26:10.995Z</time></trkpt><trkpt lat="27.8862776" lon="-15.6515601"><ele>900.0</ele><time>2026-05-02T11:26:12.994Z</time></trkpt><trkpt lat="27.8863362" lon="-15.6514915"><ele>900.0</ele><time>2026-05-02T11:26:14.995Z</time></trkpt><trkpt lat="27.8863724" lon="-15.6514102"><ele>900.0</ele><time>2026-05-02T11:26:15.994Z</time></trkpt><trkpt lat="27.886414" lon="-15.6513395"><ele>900.0</ele><time>2026-05-02T11:26:16.995Z</time></trkpt><trkpt lat="27.8864894" lon="-15.6512423"><ele>900.0</ele><time>2026-05-02T11:26:18.994Z</time></trkpt><trkpt lat="27.8865782" lon="-15.651174"><ele>900.0</ele><time>2026-05-02T11:26:20.994Z</time></trkpt><trkpt lat="27.8866494" lon="-15.6511416"><ele>900.0</ele><time>2026-05-02T11:26:22.994Z</time></trkpt><trkpt lat="27.8867254" lon="-15.6510883"><ele>900.0</ele><time>2026-05-02T11:26:24.995Z</time></trkpt><trkpt lat="27.8867899" lon="-15.6509684"><ele>900.0</ele><time>2026-05-02T11:26:26.994Z</time></trkpt><trkpt lat="27.8868217" lon="-15.6508558"><ele>900.0</ele><time>2026-05-02T11:26:28.994Z</time></trkpt><trkpt lat="27.8868689" lon="-15.650746"><ele>905.75</ele><time>2026-05-02T11:26:30.996Z</time></trkpt><trkpt lat="27.8869288" lon="-15.6506345"><ele>911.5</ele><time>2026-05-02T11:26:32.994Z</time></trkpt><trkpt lat="27.8869601" lon="-15.650508"><ele>917.25</ele><time>2026-05-02T11:26:34.994Z</time></trkpt><trkpt lat="27.8869661" lon="-15.650379"><ele>923.0</ele><time>2026-05-02T11:26:36.995Z</time></trkpt><trkpt lat="27.8869226" lon="-15.6502562"><ele>921.0</ele><time>2026-05-02T11:26:38.996Z</time></trkpt><trkpt lat="27.8868569" lon="-15.6501526"><ele>919.0</ele><time>2026-05-02T11:26:40.994Z</time></trkpt><trkpt lat="27.8867934" lon="-15.6500717"><ele>917.0</ele><time>2026-05-02T11:26:42.994Z</time></trkpt><trkpt lat="27.8867275" lon="-15.6499827"><ele>915.0</ele><time>2026-05-02T11:26:44.994Z</time></trkpt><trkpt lat="27.8866682" lon="-15.6498693"><ele>913.0</ele><time>2026-05-02T11:26:46.995Z</time></trkpt><trkpt lat="27.8866188" lon="-15.6497318"><ele>912.9999999999999</ele><time>2026-05-02T11:26:48.995Z</time></trkpt><trkpt lat="27.8865908" lon="-15.6496619"><ele>913.0</ele><time>2026-05-02T11:26:49.995Z</time></trkpt><trkpt lat="27.8865474" lon="-15.6495535"><ele>913.0</ele><time>2026-05-02T11:26:51.994Z</time></trkpt><trkpt lat="27.8865423" lon="-15.6494539"><ele>913.0</ele><time>2026-05-02T11:26:53.994Z</time></trkpt><trkpt lat="27.8865861" lon="-15.6493672"><ele>912.9999999999999</ele><time>2026-05-02T11:26:55.993Z</time></trkpt><trkpt lat="27.8866622" lon="-15.6493084"><ele>913.0</ele><time>2026-05-02T11:26:57.995Z</time></trkpt><trkpt lat="27.8867638" lon="-15.6492553"><ele>921.4</ele><time>2026-05-02T11:26:59.994Z</time></trkpt><trkpt lat="27.8868491" lon="-15.6492043"><ele>929.8</ele><time>2026-05-02T11:27:01.994Z</time></trkpt><trkpt lat="27.8868869" lon="-15.6491261"><ele>938.2</ele><time>2026-05-02T11:27:03.994Z</time></trkpt><trkpt lat="27.8868967" lon="-15.6489998"><ele>946.6</ele><time>2026-05-02T11:27:05.995Z</time></trkpt><trkpt lat="27.8868964" lon="-15.6488758"><ele>955.0</ele><time>2026-05-02T11:27:07.995Z</time></trkpt><trkpt lat="27.8868984" lon="-15.6488036"><ele>954.9999999999999</ele><time>2026-05-02T11:27:08.994Z</time></trkpt><trkpt lat="27.8869115" lon="-15.6487324"><ele>955.0</ele><time>2026-05-02T11:27:09.994Z</time></trkpt><trkpt lat="27.8869149" lon="-15.6486554"><ele>955.0</ele><time>2026-05-02T11:27:10.995Z</time></trkpt><trkpt lat="27.8869183" lon="-15.6485792"><ele>955.0</ele><time>2026-05-02T11:27:11.994Z</time></trkpt><trkpt lat="27.8869106" lon="-15.648504"><ele>954.9999999999999</ele><time>2026-05-02T11:27:12.994Z</time></trkpt><trkpt lat="27.8869277" lon="-15.6483906"><ele>955.0</ele><time>2026-05-02T11:27:14.993Z</time></trkpt><trkpt lat="27.8869697" lon="-15.6482744"><ele>954.9999999999999</ele><time>2026-05-02T11:27:16.994Z</time></trkpt><trkpt lat="27.8870078" lon="-15.6482059"><ele>955.0</ele><time>2026-05-02T11:27:17.995Z</time></trkpt><trkpt lat="27.8870484" lon="-15.6481406"><ele>955.0</ele><time>2026-05-02T11:27:18.993Z</time></trkpt><trkpt lat="27.8870867" lon="-15.6480739"><ele>955.0</ele><time>2026-05-02T11:27:19.994Z</time></trkpt><trkpt lat="27.8871363" lon="-15.647974"><ele>954.9999999999999</ele><time>2026-05-02T11:27:21.994Z</time></trkpt><trkpt lat="27.887171" lon="-15.6478782"><ele>955.0</ele><time>2026-05-02T11:27:23.995Z</time></trkpt><trkpt lat="27.8871871" lon="-15.6477666"><ele>955.8333333333333</ele><time>2026-05-02T11:27:25.994Z</time></trkpt><trkpt lat="27.8871685" lon="-15.6476901"><ele>956.6666666666666</ele><time>2026-05-02T11:27:27.994Z</time></trkpt><trkpt lat="27.8870838" lon="-15.6476265"><ele>957.5</ele><time>2026-05-02T11:27:30.994Z</time></trkpt><trkpt lat="27.8870154" lon="-15.6476288"><ele>958.3333333333333</ele><time>2026-05-02T11:27:32.995Z</time></trkpt><trkpt lat="27.8869556" lon="-15.6476647"><ele>959.1666666666666</ele><time>2026-05-02T11:27:34.995Z</time></trkpt><trkpt lat="27.8868925" lon="-15.6476855"><ele>960.0</ele><time>2026-05-02T11:27:35.994Z</time></trkpt><trkpt lat="27.8867926" lon="-15.6477198"><ele>956.8</ele><time>2026-05-02T11:27:37.995Z</time></trkpt><trkpt lat="27.8867031" lon="-15.6477419"><ele>953.6</ele><time>2026-05-02T11:27:39.994Z</time></trkpt><trkpt lat="27.8866059" lon="-15.6477526"><ele>950.4000000000001</ele><time>2026-05-02T11:27:41.993Z</time></trkpt><trkpt lat="27.8864856" lon="-15.6477522"><ele>947.2</ele><time>2026-05-02T11:27:43.995Z</time></trkpt><trkpt lat="27.8863743" lon="-15.6477821"><ele>944.0</ele><time>2026-05-02T11:27:45.994Z</time></trkpt><trkpt lat="27.8862958" lon="-15.6478177"><ele>944.0000000000001</ele><time>2026-05-02T11:27:47.994Z</time></trkpt><trkpt lat="27.8862233" lon="-15.6478362"><ele>944.0</ele><time>2026-05-02T11:27:49.994Z</time></trkpt><trkpt lat="27.8861408" lon="-15.6478292"><ele>944.0</ele><time>2026-05-02T11:27:51.994Z</time></trkpt><trkpt lat="27.886055" lon="-15.6478039"><ele>944.0</ele><time>2026-05-02T11:27:53.995Z</time></trkpt><trkpt lat="27.885988" lon="-15.6477711"><ele>944.0000000000001</ele><time>2026-05-02T11:27:55.993Z</time></trkpt><trkpt lat="27.885902" lon="-15.6477259"><ele>944.0</ele><time>2026-05-02T11:27:57.994Z</time></trkpt><trkpt lat="27.8858016" lon="-15.6476961"><ele>943.6</ele><time>2026-05-02T11:27:59.994Z</time></trkpt><trkpt lat="27.885695" lon="-15.6477369"><ele>943.2</ele><time>2026-05-02T11:28:01.994Z</time></trkpt><trkpt lat="27.8856266" lon="-15.6478117"><ele>942.8000000000001</ele><time>2026-05-02T11:28:03.994Z</time></trkpt><trkpt lat="27.8855821" lon="-15.647908"><ele>942.4000000000001</ele><time>2026-05-02T11:28:05.992Z</time></trkpt><trkpt lat="27.8855217" lon="-15.6479966"><ele>942.0</ele><time>2026-05-02T11:28:07.993Z</time></trkpt><trkpt lat="27.8854543" lon="-15.6480579"><ele>938.0</ele><time>2026-05-02T11:28:09.994Z</time></trkpt><trkpt lat="27.8853624" lon="-15.6481108"><ele>934.0</ele><time>2026-05-02T11:28:11.994Z</time></trkpt><trkpt lat="27.8852653" lon="-15.6481627"><ele>930.0</ele><time>2026-05-02T11:28:13.994Z</time></trkpt><trkpt lat="27.8851696" lon="-15.6481878"><ele>926.0</ele><time>2026-05-02T11:28:15.993Z</time></trkpt><trkpt lat="27.8850614" lon="-15.6481833"><ele>922.0</ele><time>2026-05-02T11:28:17.994Z</time></trkpt><trkpt lat="27.8849574" lon="-15.6481698"><ele>922.0</ele><time>2026-05-02T11:28:19.995Z</time></trkpt><trkpt lat="27.8848562" lon="-15.6481554"><ele>922.0</ele><time>2026-05-02T11:28:21.993Z</time></trkpt><trkpt lat="27.8847689" lon="-15.6481526"><ele>922.0</ele><time>2026-05-02T11:28:23.995Z</time></trkpt><trkpt lat="27.8846643" lon="-15.6481561"><ele>922.0</ele><time>2026-05-02T11:28:25.994Z</time></trkpt><trkpt lat="27.8845593" lon="-15.648155"><ele>922.0</ele><time>2026-05-02T11:28:27.994Z</time></trkpt><trkpt lat="27.8844583" lon="-15.6481583"><ele>922.0</ele><time>2026-05-02T11:28:29.994Z</time></trkpt><trkpt lat="27.8843518" lon="-15.6481749"><ele>922.0</ele><time>2026-05-02T11:28:31.994Z</time></trkpt><trkpt lat="27.8842552" lon="-15.6481817"><ele>922.0</ele><time>2026-05-02T11:28:33.993Z</time></trkpt><trkpt lat="27.8841575" lon="-15.6481667"><ele>922.0</ele><time>2026-05-02T11:28:35.995Z</time></trkpt><trkpt lat="27.8840807" lon="-15.6481053"><ele>922.0</ele><time>2026-05-02T11:28:37.994Z</time></trkpt><trkpt lat="27.8840464" lon="-15.6480435"><ele>921.6666666666666</ele><time>2026-05-02T11:28:38.993Z</time></trkpt><trkpt lat="27.8840119" lon="-15.6479784"><ele>921.3333333333333</ele><time>2026-05-02T11:28:39.994Z</time></trkpt><trkpt lat="27.8839606" lon="-15.647898"><ele>921.0</ele><time>2026-05-02T11:28:40.992Z</time></trkpt><trkpt lat="27.883917" lon="-15.6478142"><ele>920.6666666666667</ele><time>2026-05-02T11:28:41.994Z</time></trkpt><trkpt lat="27.8838764" lon="-15.647743"><ele>920.3333333333334</ele><time>2026-05-02T11:28:42.994Z</time></trkpt><trkpt lat="27.8838427" lon="-15.6476789"><ele>920.0</ele><time>2026-05-02T11:28:43.993Z</time></trkpt><trkpt lat="27.883777" lon="-15.647561"><ele>926.2</ele><time>2026-05-02T11:28:45.995Z</time></trkpt><trkpt lat="27.8837113" lon="-15.6474492"><ele>932.4</ele><time>2026-05-02T11:28:47.995Z</time></trkpt><trkpt lat="27.8836326" lon="-15.6473369"><ele>938.5999999999999</ele><time>2026-05-02T11:28:49.994Z</time></trkpt><trkpt lat="27.8835934" lon="-15.647276"><ele>944.8</ele><time>2026-05-02T11:28:50.993Z</time></trkpt><trkpt lat="27.8835564" lon="-15.6472154"><ele>951.0</ele><time>2026-05-02T11:28:51.993Z</time></trkpt><trkpt lat="27.8834697" lon="-15.6471184"><ele>952.4285714285713</ele><time>2026-05-02T11:28:53.992Z</time></trkpt><trkpt lat="27.8834089" lon="-15.6470809"><ele>953.8571428571429</ele><time>2026-05-02T11:28:54.993Z</time></trkpt><trkpt lat="27.883337" lon="-15.6470545"><ele>955.2857142857142</ele><time>2026-05-02T11:28:55.995Z</time></trkpt><trkpt lat="27.8832646" lon="-15.6470333"><ele>956.7142857142857</ele><time>2026-05-02T11:28:56.994Z</time></trkpt><trkpt lat="27.8832043" lon="-15.6470066"><ele>958.1428571428571</ele><time>2026-05-02T11:28:57.995Z</time></trkpt><trkpt lat="27.883128" lon="-15.646967"><ele>959.5714285714286</ele><time>2026-05-02T11:28:58.994Z</time></trkpt><trkpt lat="27.8830557" lon="-15.6469282"><ele>961.0</ele><time>2026-05-02T11:28:59.994Z</time></trkpt><trkpt lat="27.8829961" lon="-15.6468978"><ele>961.0</ele><time>2026-05-02T11:29:00.994Z</time></trkpt><trkpt lat="27.8828908" lon="-15.6468785"><ele>960.9999999999999</ele><time>2026-05-02T11:29:02.995Z</time></trkpt><trkpt lat="27.882799" lon="-15.6468544"><ele>960.9999999999999</ele><time>2026-05-02T11:29:04.993Z</time></trkpt><trkpt lat="27.8827104" lon="-15.6468036"><ele>961.0</ele><time>2026-05-02T11:29:06.995Z</time></trkpt><trkpt lat="27.8826496" lon="-15.6467155"><ele>961.0</ele><time>2026-05-02T11:29:08.994Z</time></trkpt><trkpt lat="27.8825803" lon="-15.6466739"><ele>959.1666666666666</ele><time>2026-05-02T11:29:10.995Z</time></trkpt><trkpt lat="27.8825053" lon="-15.6466706"><ele>957.3333333333333</ele><time>2026-05-02T11:29:12.993Z</time></trkpt><trkpt lat="27.8824357" lon="-15.646714"><ele>955.5</ele><time>2026-05-02T11:29:14.993Z</time></trkpt><trkpt lat="27.8823615" lon="-15.6467303"><ele>953.6666666666667</ele><time>2026-05-02T11:29:16.993Z</time></trkpt><trkpt lat="27.8822762" lon="-15.6466953"><ele>951.8333333333334</ele><time>2026-05-02T11:29:19.993Z</time></trkpt><trkpt lat="27.8822114" lon="-15.6466581"><ele>950.0</ele><time>2026-05-02T11:29:21.995Z</time></trkpt><trkpt lat="27.8821394" lon="-15.6466227"><ele>950.0000000000001</ele><time>2026-05-02T11:29:23.995Z</time></trkpt><trkpt lat="27.8820618" lon="-15.646579"><ele>950.0</ele><time>2026-05-02T11:29:25.993Z</time></trkpt><trkpt lat="27.8819924" lon="-15.6465205"><ele>950.0</ele><time>2026-05-02T11:29:27.994Z</time></trkpt><trkpt lat="27.8819616" lon="-15.6464424"><ele>950.0</ele><time>2026-05-02T11:29:29.993Z</time></trkpt><trkpt lat="27.8819433" lon="-15.6463581"><ele>950.0000000000001</ele><time>2026-05-02T11:29:31.995Z</time></trkpt><trkpt lat="27.8818958" lon="-15.6462646"><ele>950.0</ele><time>2026-05-02T11:29:33.993Z</time></trkpt><trkpt lat="27.8818384" lon="-15.6461898"><ele>952.4</ele><time>2026-05-02T11:29:35.994Z</time></trkpt><trkpt lat="27.8817823" lon="-15.6460972"><ele>954.8</ele><time>2026-05-02T11:29:37.992Z</time></trkpt><trkpt lat="27.8817115" lon="-15.6460353"><ele>957.2</ele><time>2026-05-02T11:29:39.993Z</time></trkpt><trkpt lat="27.881615" lon="-15.6460317"><ele>959.6</ele><time>2026-05-02T11:29:41.994Z</time></trkpt><trkpt lat="27.8815186" lon="-15.6460384"><ele>962.0</ele><time>2026-05-02T11:29:43.995Z</time></trkpt><trkpt lat="27.8814077" lon="-15.6460125"><ele>962.0</ele><time>2026-05-02T11:29:45.995Z</time></trkpt><trkpt lat="27.8812988" lon="-15.6459752"><ele>962.0</ele><time>2026-05-02T11:29:47.994Z</time></trkpt><trkpt lat="27.8811968" lon="-15.645934"><ele>962.0</ele><time>2026-05-02T11:29:49.995Z</time></trkpt><trkpt lat="27.8811003" lon="-15.6458818"><ele>962.0</ele><time>2026-05-02T11:29:51.994Z</time></trkpt><trkpt lat="27.8810321" lon="-15.6458154"><ele>962.0</ele><time>2026-05-02T11:29:53.995Z</time></trkpt><trkpt lat="27.8809574" lon="-15.6457592"><ele>960.4000000000001</ele><time>2026-05-02T11:29:55.993Z</time></trkpt><trkpt lat="27.8808736" lon="-15.6457569"><ele>958.8000000000001</ele><time>2026-05-02T11:29:57.993Z</time></trkpt><trkpt lat="27.8807795" lon="-15.6457882"><ele>957.2</ele><time>2026-05-02T11:29:59.993Z</time></trkpt><trkpt lat="27.8807002" lon="-15.6458366"><ele>955.6</ele><time>2026-05-02T11:30:01.994Z</time></trkpt><trkpt lat="27.8805832" lon="-15.6458959"><ele>954.0</ele><time>2026-05-02T11:30:03.994Z</time></trkpt><trkpt lat="27.8804973" lon="-15.6459533"><ele>954.0</ele><time>2026-05-02T11:30:05.994Z</time></trkpt><trkpt lat="27.8804358" lon="-15.6460105"><ele>954.0</ele><time>2026-05-02T11:30:07.995Z</time></trkpt><trkpt lat="27.8803661" lon="-15.6460585"><ele>954.0</ele><time>2026-05-02T11:30:10.994Z</time></trkpt><trkpt lat="27.8803276" lon="-15.646002"><ele>954.0</ele><time>2026-05-02T11:32:04.994Z</time></trkpt><trkpt lat="27.8803439" lon="-15.6459207"><ele>954.0</ele><time>2026-05-02T11:32:07.994Z</time></trkpt><trkpt lat="27.8803895" lon="-15.6458295"><ele>954.0</ele><time>2026-05-02T11:32:10.993Z</time></trkpt><trkpt lat="27.8804609" lon="-15.6458072"><ele>954.0</ele><time>2026-05-02T11:32:12.993Z</time></trkpt><trkpt lat="27.8805435" lon="-15.6458144"><ele>954.0</ele><time>2026-05-02T11:32:14.993Z</time></trkpt><trkpt lat="27.8806218" lon="-15.6458118"><ele>954.0</ele><time>2026-05-02T11:32:16.994Z</time></trkpt><trkpt lat="27.8806985" lon="-15.6457653"><ele>954.0</ele><time>2026-05-02T11:32:18.993Z</time></trkpt><trkpt lat="27.880765" lon="-15.6456894"><ele>954.0</ele><time>2026-05-02T11:32:20.994Z</time></trkpt><trkpt lat="27.8808381" lon="-15.6456039"><ele>954.0</ele><time>2026-05-02T11:32:22.993Z</time></trkpt><trkpt lat="27.880926" lon="-15.645516"><ele>955.6</ele><time>2026-05-02T11:32:24.993Z</time></trkpt><trkpt lat="27.881006" lon="-15.645425"><ele>957.2</ele><time>2026-05-02T11:32:26.993Z</time></trkpt><trkpt lat="27.8810923" lon="-15.6453722"><ele>958.8000000000001</ele><time>2026-05-02T11:32:28.993Z</time></trkpt><trkpt lat="27.8811928" lon="-15.6453797"><ele>960.4000000000001</ele><time>2026-05-02T11:32:30.993Z</time></trkpt><trkpt lat="27.8812542" lon="-15.6454648"><ele>962.0</ele><time>2026-05-02T11:32:32.993Z</time></trkpt><trkpt lat="27.8813244" lon="-15.6455223"><ele>962.0</ele><time>2026-05-02T11:32:34.993Z</time></trkpt><trkpt lat="27.8814219" lon="-15.6455757"><ele>962.0</ele><time>2026-05-02T11:32:36.994Z</time></trkpt><trkpt lat="27.881506" lon="-15.6456258"><ele>962.0</ele><time>2026-05-02T11:32:38.993Z</time></trkpt><trkpt lat="27.8815924" lon="-15.6456542"><ele>962.0</ele><time>2026-05-02T11:32:40.994Z</time></trkpt><trkpt lat="27.8816795" lon="-15.6456552"><ele>962.0</ele><time>2026-05-02T11:32:42.992Z</time></trkpt><trkpt lat="27.8817671" lon="-15.6456361"><ele>965.6</ele><time>2026-05-02T11:32:44.992Z</time></trkpt><trkpt lat="27.8818565" lon="-15.6456202"><ele>969.2</ele><time>2026-05-02T11:32:46.992Z</time></trkpt><trkpt lat="27.8819399" lon="-15.6456125"><ele>972.8</ele><time>2026-05-02T11:32:48.995Z</time></trkpt><trkpt lat="27.8820233" lon="-15.6456347"><ele>976.4</ele><time>2026-05-02T11:32:50.992Z</time></trkpt><trkpt lat="27.8821008" lon="-15.645706"><ele>980.0</ele><time>2026-05-02T11:32:52.993Z</time></trkpt><trkpt lat="27.8821111" lon="-15.6458082"><ele>980.0</ele><time>2026-05-02T11:32:54.993Z</time></trkpt><trkpt lat="27.8821146" lon="-15.6458879"><ele>980.0</ele><time>2026-05-02T11:32:56.994Z</time></trkpt><trkpt lat="27.8821875" lon="-15.6459568"><ele>980.0</ele><time>2026-05-02T11:32:59.993Z</time></trkpt><trkpt lat="27.8822928" lon="-15.6459869"><ele>980.0</ele><time>2026-05-02T11:33:01.994Z</time></trkpt><trkpt lat="27.8823962" lon="-15.6459997"><ele>980.0</ele><time>2026-05-02T11:33:03.992Z</time></trkpt><trkpt lat="27.8824791" lon="-15.6460103"><ele>980.0000000000001</ele><time>2026-05-02T11:33:05.994Z</time></trkpt><trkpt lat="27.8825623" lon="-15.6460145"><ele>980.0</ele><time>2026-05-02T11:33:07.992Z</time></trkpt><trkpt lat="27.8826484" lon="-15.6460151"><ele>980.0</ele><time>2026-05-02T11:33:09.993Z</time></trkpt><trkpt lat="27.8827134" lon="-15.6459753"><ele>980.0</ele><time>2026-05-02T11:33:11.994Z</time></trkpt><trkpt lat="27.8828133" lon="-15.6459728"><ele>980.0000000000001</ele><time>2026-05-02T11:33:13.993Z</time></trkpt><trkpt lat="27.8828872" lon="-15.6460244"><ele>980.0</ele><time>2026-05-02T11:33:15.993Z</time></trkpt><trkpt lat="27.8829572" lon="-15.6460541"><ele>982.4285714285714</ele><time>2026-05-02T11:33:17.994Z</time></trkpt><trkpt lat="27.8830255" lon="-15.6460513"><ele>984.8571428571429</ele><time>2026-05-02T11:33:19.993Z</time></trkpt><trkpt lat="27.8830938" lon="-15.6460244"><ele>987.2857142857142</ele><time>2026-05-02T11:33:21.993Z</time></trkpt><trkpt lat="27.8831546" lon="-15.6460001"><ele>989.7142857142857</ele><time>2026-05-02T11:33:33.993Z</time></trkpt><trkpt lat="27.8832407" lon="-15.6459962"><ele>992.1428571428571</ele><time>2026-05-02T11:33:35.993Z</time></trkpt><trkpt lat="27.8833116" lon="-15.6460076"><ele>994.5714285714284</ele><time>2026-05-02T11:33:37.992Z</time></trkpt><trkpt lat="27.8833922" lon="-15.6460214"><ele>996.9999999999999</ele><time>2026-05-02T11:33:39.993Z</time></trkpt><trkpt lat="27.8834803" lon="-15.6460356"><ele>999.8333333333333</ele><time>2026-05-02T11:33:41.993Z</time></trkpt><trkpt lat="27.8835711" lon="-15.6460559"><ele>1002.6666666666666</ele><time>2026-05-02T11:33:43.992Z</time></trkpt><trkpt lat="27.8836488" lon="-15.6460765"><ele>1005.5</ele><time>2026-05-02T11:33:45.993Z</time></trkpt><trkpt lat="27.8837094" lon="-15.6461119"><ele>1008.3333333333333</ele><time>2026-05-02T11:33:47.993Z</time></trkpt><trkpt lat="27.8837833" lon="-15.6461436"><ele>1011.1666666666666</ele><time>2026-05-02T11:33:49.993Z</time></trkpt><trkpt lat="27.883885" lon="-15.6462015"><ele>1014.0</ele><time>2026-05-02T11:33:51.993Z</time></trkpt><trkpt lat="27.883992" lon="-15.6462387"><ele>1007.8000000000001</ele><time>2026-05-02T11:33:53.993Z</time></trkpt><trkpt lat="27.8840781" lon="-15.6462718"><ele>1001.6000000000001</ele><time>2026-05-02T11:33:55.994Z</time></trkpt><trkpt lat="27.8841499" lon="-15.6463065"><ele>995.4</ele><time>2026-05-02T11:33:57.993Z</time></trkpt><trkpt lat="27.8842226" lon="-15.6463521"><ele>989.2</ele><time>2026-05-02T11:33:59.995Z</time></trkpt><trkpt lat="27.8843253" lon="-15.6464089"><ele>983.0</ele><time>2026-05-02T11:34:01.993Z</time></trkpt><trkpt lat="27.8844075" lon="-15.6464494"><ele>983.0000000000001</ele><time>2026-05-02T11:34:03.992Z</time></trkpt><trkpt lat="27.8844764" lon="-15.6464543"><ele>983.0</ele><time>2026-05-02T11:34:05.993Z</time></trkpt><trkpt lat="27.884548" lon="-15.6464395"><ele>983.0</ele><time>2026-05-02T11:34:07.993Z</time></trkpt><trkpt lat="27.8846193" lon="-15.6464161"><ele>983.0</ele><time>2026-05-02T11:34:09.994Z</time></trkpt><trkpt lat="27.8846924" lon="-15.6463879"><ele>983.0000000000001</ele><time>2026-05-02T11:34:11.994Z</time></trkpt><trkpt lat="27.8847722" lon="-15.6463338"><ele>983.0</ele><time>2026-05-02T11:34:13.993Z</time></trkpt><trkpt lat="27.8848405" lon="-15.6462641"><ele>983.0000000000001</ele><time>2026-05-02T11:34:15.994Z</time></trkpt><trkpt lat="27.8848991" lon="-15.6461957"><ele>983.0</ele><time>2026-05-02T11:34:17.993Z</time></trkpt><trkpt lat="27.8849626" lon="-15.6461079"><ele>983.0</ele><time>2026-05-02T11:34:19.992Z</time></trkpt><trkpt lat="27.88503" lon="-15.6459967"><ele>983.0</ele><time>2026-05-02T11:34:21.994Z</time></trkpt><trkpt lat="27.8850705" lon="-15.6459375"><ele>983.0000000000001</ele><time>2026-05-02T11:34:22.993Z</time></trkpt><trkpt lat="27.8851071" lon="-15.645878"><ele>983.0</ele><time>2026-05-02T11:34:23.992Z</time></trkpt><trkpt lat="27.8851789" lon="-15.6457831"><ele>985.5999999999999</ele><time>2026-05-02T11:34:25.993Z</time></trkpt><trkpt lat="27.8852395" lon="-15.6456926"><ele>988.1999999999999</ele><time>2026-05-02T11:34:27.993Z</time></trkpt><trkpt lat="27.8852984" lon="-15.6455863"><ele>990.8</ele><time>2026-05-02T11:34:29.993Z</time></trkpt><trkpt lat="27.8853755" lon="-15.6454972"><ele>993.4</ele><time>2026-05-02T11:34:31.992Z</time></trkpt><trkpt lat="27.8854655" lon="-15.6454451"><ele>996.0</ele><time>2026-05-02T11:34:33.994Z</time></trkpt><trkpt lat="27.8855276" lon="-15.6454219"><ele>996.0</ele><time>2026-05-02T11:34:34.994Z</time></trkpt><trkpt lat="27.8855892" lon="-15.6454006"><ele>996.0</ele><time>2026-05-02T11:34:35.992Z</time></trkpt><trkpt lat="27.8856788" lon="-15.6453475"><ele>996.0</ele><time>2026-05-02T11:34:37.993Z</time></trkpt><trkpt lat="27.8857445" lon="-15.6452908"><ele>996.0</ele><time>2026-05-02T11:34:39.993Z</time></trkpt><trkpt lat="27.8858171" lon="-15.6452724"><ele>996.0</ele><time>2026-05-02T11:34:41.993Z</time></trkpt><trkpt lat="27.8859038" lon="-15.6453083"><ele>996.0</ele><time>2026-05-02T11:34:43.993Z</time></trkpt><trkpt lat="27.8859887" lon="-15.6453381"><ele>997.6666666666666</ele><time>2026-05-02T11:34:45.994Z</time></trkpt><trkpt lat="27.8860659" lon="-15.645365"><ele>999.3333333333333</ele><time>2026-05-02T11:34:47.994Z</time></trkpt><trkpt lat="27.8861305" lon="-15.6454402"><ele>1001.0</ele><time>2026-05-02T11:34:50.994Z</time></trkpt><trkpt lat="27.8861467" lon="-15.6455316"><ele>1002.6666666666666</ele><time>2026-05-02T11:34:52.993Z</time></trkpt><trkpt lat="27.88617" lon="-15.6456195"><ele>1004.3333333333333</ele><time>2026-05-02T11:34:54.994Z</time></trkpt><trkpt lat="27.8862156" lon="-15.6457283"><ele>1006.0</ele><time>2026-05-02T11:34:56.994Z</time></trkpt><trkpt lat="27.8862752" lon="-15.6458223"><ele>1005.9999999999999</ele><time>2026-05-02T11:34:58.994Z</time></trkpt><trkpt lat="27.8863302" lon="-15.645873"><ele>1006.0</ele><time>2026-05-02T11:35:00.994Z</time></trkpt><trkpt lat="27.8864076" lon="-15.6458756"><ele>1006.0</ele><time>2026-05-02T11:35:02.993Z</time></trkpt><trkpt lat="27.8864945" lon="-15.6458603"><ele>1006.0</ele><time>2026-05-02T11:35:04.993Z</time></trkpt><trkpt lat="27.8865967" lon="-15.6458504"><ele>1005.9999999999999</ele><time>2026-05-02T11:35:06.993Z</time></trkpt><trkpt lat="27.886672" lon="-15.6458419"><ele>1006.0</ele><time>2026-05-02T11:35:08.994Z</time></trkpt><trkpt lat="27.8867634" lon="-15.6458505"><ele>1004.4999999999999</ele><time>2026-05-02T11:35:10.994Z</time></trkpt><trkpt lat="27.8868332" lon="-15.6458355"><ele>1003.0</ele><time>2026-05-02T11:35:12.994Z</time></trkpt><trkpt lat="27.8869127" lon="-15.6457933"><ele>1001.5</ele><time>2026-05-02T11:35:14.993Z</time></trkpt><trkpt lat="27.8869876" lon="-15.6457426"><ele>1000.0</ele><time>2026-05-02T11:35:16.994Z</time></trkpt><trkpt lat="27.8870604" lon="-15.6456809"><ele>998.4999999999999</ele><time>2026-05-02T11:35:18.994Z</time></trkpt><trkpt lat="27.8871083" lon="-15.6456202"><ele>997.0</ele><time>2026-05-02T11:35:20.994Z</time></trkpt><trkpt lat="27.8871749" lon="-15.6455222"><ele>996.9999999999999</ele><time>2026-05-02T11:35:22.993Z</time></trkpt><trkpt lat="27.8872178" lon="-15.6454686"><ele>997.0</ele><time>2026-05-02T11:35:23.993Z</time></trkpt><trkpt lat="27.8872865" lon="-15.6453811"><ele>997.0</ele><time>2026-05-02T11:35:25.993Z</time></trkpt><trkpt lat="27.8873368" lon="-15.645327"><ele>997.0</ele><time>2026-05-02T11:35:27.994Z</time></trkpt><trkpt lat="27.8873936" lon="-15.6452711"><ele>996.9999999999999</ele><time>2026-05-02T11:35:29.993Z</time></trkpt><trkpt lat="27.887446" lon="-15.645175"><ele>997.0</ele><time>2026-05-02T11:35:31.993Z</time></trkpt><trkpt lat="27.8874727" lon="-15.6451103"><ele>1001.3333333333333</ele><time>2026-05-02T11:35:32.991Z</time></trkpt><trkpt lat="27.8874939" lon="-15.6450332"><ele>1005.6666666666666</ele><time>2026-05-02T11:35:33.994Z</time></trkpt><trkpt lat="27.8875161" lon="-15.6449616"><ele>1010.0</ele><time>2026-05-02T11:35:34.992Z</time></trkpt><trkpt lat="27.8875548" lon="-15.6448515"><ele>1014.3333333333333</ele><time>2026-05-02T11:35:36.992Z</time></trkpt><trkpt lat="27.8875781" lon="-15.6447683"><ele>1018.6666666666666</ele><time>2026-05-02T11:35:38.993Z</time></trkpt><trkpt lat="27.8876244" lon="-15.6446877"><ele>1023.0</ele><time>2026-05-02T11:35:41.992Z</time></trkpt><trkpt lat="27.8876779" lon="-15.6446244"><ele>1024.0</ele><time>2026-05-02T11:35:44.993Z</time></trkpt><trkpt lat="27.8877601" lon="-15.6446152"><ele>1025.0</ele><time>2026-05-02T11:35:46.993Z</time></trkpt><trkpt lat="27.8878527" lon="-15.6446492"><ele>1026.0</ele><time>2026-05-02T11:35:48.993Z</time></trkpt><trkpt lat="27.887919" lon="-15.6447027"><ele>1027.0</ele><time>2026-05-02T11:35:50.992Z</time></trkpt><trkpt lat="27.8879723" lon="-15.6447721"><ele>1028.0</ele><time>2026-05-02T11:35:52.993Z</time></trkpt><trkpt lat="27.8880352" lon="-15.6448625"><ele>1029.0</ele><time>2026-05-02T11:35:54.994Z</time></trkpt><trkpt lat="27.8880967" lon="-15.6449379"><ele>1029.0</ele><time>2026-05-02T11:35:56.992Z</time></trkpt><trkpt lat="27.8881742" lon="-15.6449949"><ele>1029.0</ele><time>2026-05-02T11:35:58.993Z</time></trkpt><trkpt lat="27.8882843" lon="-15.6450578"><ele>1029.0</ele><time>2026-05-02T11:36:00.994Z</time></trkpt><trkpt lat="27.8883607" lon="-15.6451192"><ele>1029.0</ele><time>2026-05-02T11:36:02.993Z</time></trkpt><trkpt lat="27.8884392" lon="-15.6451942"><ele>1029.0</ele><time>2026-05-02T11:36:04.992Z</time></trkpt><trkpt lat="27.8885438" lon="-15.6452437"><ele>1030.0</ele><time>2026-05-02T11:36:06.992Z</time></trkpt><trkpt lat="27.888653" lon="-15.6452683"><ele>1031.0</ele><time>2026-05-02T11:36:08.992Z</time></trkpt><trkpt lat="27.8887761" lon="-15.6453102"><ele>1032.0</ele><time>2026-05-02T11:36:10.994Z</time></trkpt><trkpt lat="27.888837" lon="-15.6453342"><ele>1033.0</ele><time>2026-05-02T11:36:11.992Z</time></trkpt><trkpt lat="27.8889251" lon="-15.6453921"><ele>1034.0</ele><time>2026-05-02T11:36:13.993Z</time></trkpt><trkpt lat="27.8890112" lon="-15.6454402"><ele>1034.0</ele><time>2026-05-02T11:36:15.993Z</time></trkpt><trkpt lat="27.8891023" lon="-15.6454699"><ele>1034.0</ele><time>2026-05-02T11:36:17.993Z</time></trkpt><trkpt lat="27.8891789" lon="-15.6455003"><ele>1034.0</ele><time>2026-05-02T11:36:19.992Z</time></trkpt><trkpt lat="27.8892538" lon="-15.6455534"><ele>1034.0</ele><time>2026-05-02T11:36:21.993Z</time></trkpt><trkpt lat="27.8893503" lon="-15.6456429"><ele>1034.0</ele><time>2026-05-02T11:36:23.992Z</time></trkpt><trkpt lat="27.8894075" lon="-15.6457341"><ele>1039.0</ele><time>2026-05-02T11:36:25.993Z</time></trkpt><trkpt lat="27.8894247" lon="-15.6458456"><ele>1044.0</ele><time>2026-05-02T11:36:27.992Z</time></trkpt><trkpt lat="27.8893993" lon="-15.645913"><ele>1049.0</ele><time>2026-05-02T11:36:28.993Z</time></trkpt><trkpt lat="27.8893524" lon="-15.6460001"><ele>1054.0</ele><time>2026-05-02T11:36:30.993Z</time></trkpt><trkpt lat="27.8893066" lon="-15.6460998"><ele>1059.0</ele><time>2026-05-02T11:36:32.992Z</time></trkpt><trkpt lat="27.8892717" lon="-15.6462258"><ele>1059.0</ele><time>2026-05-02T11:36:34.992Z</time></trkpt><trkpt lat="27.8892756" lon="-15.6463498"><ele>1059.0</ele><time>2026-05-02T11:36:36.992Z</time></trkpt><trkpt lat="27.8893009" lon="-15.6464654"><ele>1059.0</ele><time>2026-05-02T11:36:38.991Z</time></trkpt><trkpt lat="27.8893422" lon="-15.6466017"><ele>1059.0</ele><time>2026-05-02T11:36:40.993Z</time></trkpt><trkpt lat="27.889368" lon="-15.6466705"><ele>1059.0</ele><time>2026-05-02T11:36:41.992Z</time></trkpt><trkpt lat="27.8894326" lon="-15.6467876"><ele>1059.0</ele><time>2026-05-02T11:36:43.992Z</time></trkpt><trkpt lat="27.889495" lon="-15.6468433"><ele>1059.0</ele><time>2026-05-02T11:36:45.993Z</time></trkpt><trkpt lat="27.8895565" lon="-15.6469243"><ele>1059.0</ele><time>2026-05-02T11:36:47.994Z</time></trkpt><trkpt lat="27.889636" lon="-15.6470067"><ele>1059.0</ele><time>2026-05-02T11:36:49.992Z</time></trkpt><trkpt lat="27.8897093" lon="-15.647114"><ele>1059.0</ele><time>2026-05-02T11:36:51.992Z</time></trkpt><trkpt lat="27.889774" lon="-15.6472064"><ele>1054.5</ele><time>2026-05-02T11:36:53.993Z</time></trkpt><trkpt lat="27.8898291" lon="-15.6472925"><ele>1050.0</ele><time>2026-05-02T11:36:55.993Z</time></trkpt><trkpt lat="27.8898801" lon="-15.647364"><ele>1045.5</ele><time>2026-05-02T11:36:58.992Z</time></trkpt><trkpt lat="27.8899079" lon="-15.6474517"><ele>1041.0</ele><time>2026-05-02T11:37:01.993Z</time></trkpt><trkpt lat="27.8898865" lon="-15.6475284"><ele>1036.5</ele><time>2026-05-02T11:37:04.994Z</time></trkpt><trkpt lat="27.8898441" lon="-15.6475818"><ele>1032.0</ele><time>2026-05-02T11:37:07.992Z</time></trkpt><trkpt lat="27.8897972" lon="-15.6476318"><ele>1032.0</ele><time>2026-05-02T11:37:11.991Z</time></trkpt><trkpt lat="27.8898666" lon="-15.6476149"><ele>1032.0</ele><time>2026-05-02T11:37:16.992Z</time></trkpt><trkpt lat="27.889905" lon="-15.6475431"><ele>1032.0</ele><time>2026-05-02T11:37:19.992Z</time></trkpt><trkpt lat="27.8899036" lon="-15.6474605"><ele>1032.0</ele><time>2026-05-02T11:37:21.994Z</time></trkpt><trkpt lat="27.889964" lon="-15.6474033"><ele>1032.0</ele><time>2026-05-02T11:37:23.991Z</time></trkpt><trkpt lat="27.890057" lon="-15.6473718"><ele>1032.0</ele><time>2026-05-02T11:37:25.992Z</time></trkpt><trkpt lat="27.8901324" lon="-15.6473181"><ele>1035.8</ele><time>2026-05-02T11:37:27.993Z</time></trkpt><trkpt lat="27.8902086" lon="-15.6472559"><ele>1039.6</ele><time>2026-05-02T11:37:29.993Z</time></trkpt><trkpt lat="27.8902707" lon="-15.6471911"><ele>1043.3999999999999</ele><time>2026-05-02T11:37:31.994Z</time></trkpt><trkpt lat="27.890334" lon="-15.6471343"><ele>1047.2</ele><time>2026-05-02T11:37:33.994Z</time></trkpt><trkpt lat="27.8903763" lon="-15.6470521"><ele>1051.0</ele><time>2026-05-02T11:37:35.994Z</time></trkpt><trkpt lat="27.8904134" lon="-15.6469302"><ele>1051.0</ele><time>2026-05-02T11:37:37.993Z</time></trkpt><trkpt lat="27.890469" lon="-15.6468174"><ele>1051.0</ele><time>2026-05-02T11:37:39.992Z</time></trkpt><trkpt lat="27.8905435" lon="-15.6467221"><ele>1051.0</ele><time>2026-05-02T11:37:41.993Z</time></trkpt><trkpt lat="27.8906298" lon="-15.6466445"><ele>1051.0</ele><time>2026-05-02T11:37:43.993Z</time></trkpt><trkpt lat="27.8907213" lon="-15.646589"><ele>1051.0</ele><time>2026-05-02T11:37:45.992Z</time></trkpt><trkpt lat="27.890819" lon="-15.6465554"><ele>1051.0</ele><time>2026-05-02T11:37:47.993Z</time></trkpt><trkpt lat="27.8909074" lon="-15.646551"><ele>1051.0</ele><time>2026-05-02T11:37:49.993Z</time></trkpt><trkpt lat="27.8909802" lon="-15.6465628"><ele>1051.0</ele><time>2026-05-02T11:37:51.993Z</time></trkpt><trkpt lat="27.8910879" lon="-15.6466142"><ele>1051.0</ele><time>2026-05-02T11:37:53.993Z</time></trkpt><trkpt lat="27.8911718" lon="-15.6466519"><ele>1051.0</ele><time>2026-05-02T11:37:55.993Z</time></trkpt><trkpt lat="27.8912417" lon="-15.6466779"><ele>1051.0</ele><time>2026-05-02T11:37:57.992Z</time></trkpt><trkpt lat="27.8913197" lon="-15.6466999"><ele>1049.0</ele><time>2026-05-02T11:37:59.993Z</time></trkpt><trkpt lat="27.8913926" lon="-15.6467227"><ele>1047.0</ele><time>2026-05-02T11:38:01.991Z</time></trkpt><trkpt lat="27.8914588" lon="-15.6467426"><ele>1045.0</ele><time>2026-05-02T11:38:03.993Z</time></trkpt><trkpt lat="27.8915313" lon="-15.6467515"><ele>1043.0</ele><time>2026-05-02T11:38:05.992Z</time></trkpt><trkpt lat="27.8915989" lon="-15.6467516"><ele>1041.0</ele><time>2026-05-02T11:38:07.993Z</time></trkpt><trkpt lat="27.8916745" lon="-15.6467406"><ele>1039.0</ele><time>2026-05-02T11:38:09.992Z</time></trkpt><trkpt lat="27.8917529" lon="-15.6467126"><ele>1037.0</ele><time>2026-05-02T11:38:11.992Z</time></trkpt><trkpt lat="27.891822" lon="-15.6466636"><ele>1035.4285714285716</ele><time>2026-05-02T11:38:13.992Z</time></trkpt><trkpt lat="27.8918851" lon="-15.6466214"><ele>1033.857142857143</ele><time>2026-05-02T11:38:15.993Z</time></trkpt><trkpt lat="27.8919546" lon="-15.6465836"><ele>1032.2857142857142</ele><time>2026-05-02T11:38:17.993Z</time></trkpt><trkpt lat="27.8920323" lon="-15.6465559"><ele>1030.7142857142858</ele><time>2026-05-02T11:38:19.992Z</time></trkpt><trkpt lat="27.8920993" lon="-15.6465377"><ele>1029.142857142857</ele><time>2026-05-02T11:38:21.993Z</time></trkpt><trkpt lat="27.892165" lon="-15.6465238"><ele>1027.5714285714287</ele><time>2026-05-02T11:38:23.993Z</time></trkpt><trkpt lat="27.8922317" lon="-15.6465124"><ele>1026.0</ele><time>2026-05-02T11:38:25.992Z</time></trkpt><trkpt lat="27.8922981" lon="-15.6464818"><ele>1026.0</ele><time>2026-05-02T11:38:27.993Z</time></trkpt><trkpt lat="27.892371" lon="-15.6464519"><ele>1026.0</ele><time>2026-05-02T11:38:29.993Z</time></trkpt><trkpt lat="27.8924465" lon="-15.6464242"><ele>1026.0</ele><time>2026-05-02T11:38:31.992Z</time></trkpt><trkpt lat="27.8925247" lon="-15.6463996"><ele>1026.0</ele><time>2026-05-02T11:38:33.992Z</time></trkpt><trkpt lat="27.8926045" lon="-15.6463817"><ele>1026.0</ele><time>2026-05-02T11:38:35.992Z</time></trkpt><trkpt lat="27.8926764" lon="-15.6463502"><ele>1026.0</ele><time>2026-05-02T11:38:37.993Z</time></trkpt><trkpt lat="27.8927402" lon="-15.646317"><ele>1025.5</ele><time>2026-05-02T11:38:39.993Z</time></trkpt><trkpt lat="27.8928149" lon="-15.6462533"><ele>1025.0</ele><time>2026-05-02T11:38:42.992Z</time></trkpt><trkpt lat="27.8928672" lon="-15.6462006"><ele>1024.5</ele><time>2026-05-02T11:38:44.993Z</time></trkpt><trkpt lat="27.8929196" lon="-15.6461442"><ele>1024.0</ele><time>2026-05-02T11:38:46.993Z</time></trkpt><trkpt lat="27.8929903" lon="-15.646094"><ele>1023.5</ele><time>2026-05-02T11:38:48.993Z</time></trkpt><trkpt lat="27.8930522" lon="-15.6460398"><ele>1023.0</ele><time>2026-05-02T11:38:50.992Z</time></trkpt><trkpt lat="27.8931397" lon="-15.6459878"><ele>1023.0</ele><time>2026-05-02T11:38:52.993Z</time></trkpt><trkpt lat="27.8931992" lon="-15.6459289"><ele>1023.0</ele><time>2026-05-02T11:38:54.992Z</time></trkpt><trkpt lat="27.8932763" lon="-15.6459111"><ele>1023.0</ele><time>2026-05-02T11:38:57.992Z</time></trkpt><trkpt lat="27.8933059" lon="-15.6459788"><ele>1023.0</ele><time>2026-05-02T11:39:01.992Z</time></trkpt><trkpt lat="27.8932302" lon="-15.6460579"><ele>1023.0</ele><time>2026-05-02T11:39:04.994Z</time></trkpt><trkpt lat="27.8931726" lon="-15.6461356"><ele>1023.0</ele><time>2026-05-02T11:39:06.991Z</time></trkpt><trkpt lat="27.893129" lon="-15.6462005"><ele>1020.0</ele><time>2026-05-02T11:39:08.992Z</time></trkpt><trkpt lat="27.8930884" lon="-15.6462661"><ele>1017.0</ele><time>2026-05-02T11:39:10.992Z</time></trkpt><trkpt lat="27.8930438" lon="-15.6463327"><ele>1014.0</ele><time>2026-05-02T11:39:12.992Z</time></trkpt><trkpt lat="27.8930068" lon="-15.6464014"><ele>1011.0</ele><time>2026-05-02T11:39:14.993Z</time></trkpt><trkpt lat="27.892962" lon="-15.6464745"><ele>1008.0</ele><time>2026-05-02T11:39:16.994Z</time></trkpt><trkpt lat="27.8929134" lon="-15.6465595"><ele>1005.0</ele><time>2026-05-02T11:39:18.992Z</time></trkpt><trkpt lat="27.89286" lon="-15.6466462"><ele>1005.0</ele><time>2026-05-02T11:39:20.993Z</time></trkpt><trkpt lat="27.8928197" lon="-15.6467252"><ele>1005.0</ele><time>2026-05-02T11:39:22.992Z</time></trkpt><trkpt lat="27.8927892" lon="-15.6468081"><ele>1005.0</ele><time>2026-05-02T11:39:24.993Z</time></trkpt><trkpt lat="27.8927536" lon="-15.6468953"><ele>1005.0</ele><time>2026-05-02T11:39:26.992Z</time></trkpt><trkpt lat="27.8926895" lon="-15.6469568"><ele>1005.0</ele><time>2026-05-02T11:39:28.992Z</time></trkpt><trkpt lat="27.8926127" lon="-15.6469855"><ele>1005.0</ele><time>2026-05-02T11:39:31.993Z</time></trkpt><trkpt lat="27.8924862" lon="-15.6469858"><ele>1004.5</ele><time>2026-05-02T11:39:33.993Z</time></trkpt><trkpt lat="27.8923833" lon="-15.6470045"><ele>1004.0</ele><time>2026-05-02T11:39:35.993Z</time></trkpt><trkpt lat="27.89232" lon="-15.6470451"><ele>1003.5</ele><time>2026-05-02T11:39:37.991Z</time></trkpt><trkpt lat="27.8922579" lon="-15.6471411"><ele>1003.0</ele><time>2026-05-02T11:39:41.993Z</time></trkpt><trkpt lat="27.8922425" lon="-15.6472391"><ele>1002.5</ele><time>2026-05-02T11:39:43.993Z</time></trkpt><trkpt lat="27.8922532" lon="-15.647315"><ele>1002.0</ele><time>2026-05-02T11:39:45.992Z</time></trkpt><trkpt lat="27.8922806" lon="-15.647396"><ele>1002.0</ele><time>2026-05-02T11:39:49.992Z</time></trkpt><trkpt lat="27.8923051" lon="-15.6474626"><ele>1002.0</ele><time>2026-05-02T11:40:00.991Z</time></trkpt><trkpt lat="27.892378" lon="-15.6474835"><ele>1002.0</ele><time>2026-05-02T11:40:03.993Z</time></trkpt><trkpt lat="27.8924483" lon="-15.6474881"><ele>1002.0</ele><time>2026-05-02T11:40:05.991Z</time></trkpt><trkpt lat="27.8925107" lon="-15.6474719"><ele>1002.0</ele><time>2026-05-02T11:40:07.991Z</time></trkpt><trkpt lat="27.8925684" lon="-15.6474432"><ele>1002.0</ele><time>2026-05-02T11:40:09.992Z</time></trkpt><trkpt lat="27.8926376" lon="-15.6473754"><ele>1002.0</ele><time>2026-05-02T11:40:12.992Z</time></trkpt><trkpt lat="27.8926743" lon="-15.6473121"><ele>1002.5</ele><time>2026-05-02T11:40:15.993Z</time></trkpt><trkpt lat="27.8926752" lon="-15.6471985"><ele>1003.0</ele><time>2026-05-02T11:40:22.992Z</time></trkpt><trkpt lat="27.8927293" lon="-15.6471456"><ele>1003.5</ele><time>2026-05-02T11:40:26.992Z</time></trkpt><trkpt lat="27.8927756" lon="-15.6470812"><ele>1004.0</ele><time>2026-05-02T11:42:01.992Z</time></trkpt><trkpt lat="27.8928335" lon="-15.6470415"><ele>1004.5</ele><time>2026-05-02T11:42:03.992Z</time></trkpt><trkpt lat="27.8928977" lon="-15.6470084"><ele>1005.0</ele><time>2026-05-02T11:42:05.99Z</time></trkpt><trkpt lat="27.8929583" lon="-15.6469581"><ele>1005.0</ele><time>2026-05-02T11:42:07.991Z</time></trkpt><trkpt lat="27.8930183" lon="-15.6468972"><ele>1005.0</ele><time>2026-05-02T11:42:09.991Z</time></trkpt><trkpt lat="27.8930958" lon="-15.6468419"><ele>1005.0</ele><time>2026-05-02T11:42:11.992Z</time></trkpt><trkpt lat="27.8931617" lon="-15.6467899"><ele>1005.0</ele><time>2026-05-02T11:42:13.991Z</time></trkpt><trkpt lat="27.8932203" lon="-15.6467468"><ele>1005.0</ele><time>2026-05-02T11:42:15.992Z</time></trkpt><trkpt lat="27.8932802" lon="-15.6467144"><ele>1005.0</ele><time>2026-05-02T11:42:17.992Z</time></trkpt><trkpt lat="27.8933415" lon="-15.6466744"><ele>1005.0000000000001</ele><time>2026-05-02T11:42:19.991Z</time></trkpt><trkpt lat="27.8934113" lon="-15.6466275"><ele>1005.0</ele><time>2026-05-02T11:42:21.99Z</time></trkpt><trkpt lat="27.8934716" lon="-15.6465863"><ele>1005.0000000000001</ele><time>2026-05-02T11:42:23.992Z</time></trkpt><trkpt lat="27.8935271" lon="-15.6465436"><ele>1005.0000000000001</ele><time>2026-05-02T11:42:25.992Z</time></trkpt><trkpt lat="27.8935867" lon="-15.6465107"><ele>1005.0</ele><time>2026-05-02T11:42:27.991Z</time></trkpt><trkpt lat="27.8936521" lon="-15.646474"><ele>1005.0000000000001</ele><time>2026-05-02T11:42:29.991Z</time></trkpt><trkpt lat="27.8937243" lon="-15.6464437"><ele>1005.0000000000001</ele><time>2026-05-02T11:42:31.991Z</time></trkpt><trkpt lat="27.8938048" lon="-15.6463872"><ele>1002.1666666666666</ele><time>2026-05-02T11:42:33.991Z</time></trkpt><trkpt lat="27.8938608" lon="-15.6463443"><ele>999.3333333333333</ele><time>2026-05-02T11:42:34.991Z</time></trkpt><trkpt lat="27.8939178" lon="-15.6463032"><ele>996.5</ele><time>2026-05-02T11:42:35.99Z</time></trkpt><trkpt lat="27.893975" lon="-15.646268"><ele>993.6666666666666</ele><time>2026-05-02T11:42:36.992Z</time></trkpt><trkpt lat="27.8940854" lon="-15.6462041"><ele>990.8333333333333</ele><time>2026-05-02T11:42:38.992Z</time></trkpt><trkpt lat="27.8941755" lon="-15.6461367"><ele>988.0</ele><time>2026-05-02T11:42:40.992Z</time></trkpt><trkpt lat="27.8942616" lon="-15.6460831"><ele>987.1666666666666</ele><time>2026-05-02T11:42:42.993Z</time></trkpt><trkpt lat="27.8943407" lon="-15.6460389"><ele>986.3333333333333</ele><time>2026-05-02T11:42:44.99Z</time></trkpt><trkpt lat="27.8944327" lon="-15.6459924"><ele>985.5</ele><time>2026-05-02T11:42:46.992Z</time></trkpt><trkpt lat="27.8945228" lon="-15.645936"><ele>984.6666666666667</ele><time>2026-05-02T11:42:48.99Z</time></trkpt><trkpt lat="27.8945853" lon="-15.6459009"><ele>983.8333333333334</ele><time>2026-05-02T11:42:50.993Z</time></trkpt><trkpt lat="27.8946368" lon="-15.6458576"><ele>983.0</ele><time>2026-05-02T11:42:52.993Z</time></trkpt><trkpt lat="27.894705" lon="-15.6458034"><ele>983.0000000000001</ele><time>2026-05-02T11:42:54.991Z</time></trkpt><trkpt lat="27.8948007" lon="-15.6457464"><ele>983.0</ele><time>2026-05-02T11:42:56.992Z</time></trkpt><trkpt lat="27.8948724" lon="-15.6456887"><ele>983.0</ele><time>2026-05-02T11:42:58.992Z</time></trkpt><trkpt lat="27.8949308" lon="-15.6456285"><ele>983.0</ele><time>2026-05-02T11:43:00.992Z</time></trkpt><trkpt lat="27.894977" lon="-15.6455721"><ele>983.0000000000001</ele><time>2026-05-02T11:43:02.992Z</time></trkpt><trkpt lat="27.8950246" lon="-15.6455218"><ele>983.0</ele><time>2026-05-02T11:43:04.991Z</time></trkpt><trkpt lat="27.8950687" lon="-15.6454682"><ele>983.0000000000001</ele><time>2026-05-02T11:43:06.991Z</time></trkpt><trkpt lat="27.895101" lon="-15.6453687"><ele>983.0</ele><time>2026-05-02T11:43:09.99Z</time></trkpt><trkpt lat="27.895081" lon="-15.6452956"><ele>983.0</ele><time>2026-05-02T11:43:11.993Z</time></trkpt><trkpt lat="27.8950258" lon="-15.6452389"><ele>983.0</ele><time>2026-05-02T11:43:13.992Z</time></trkpt><trkpt lat="27.8949526" lon="-15.6451907"><ele>983.0000000000001</ele><time>2026-05-02T11:43:15.991Z</time></trkpt><trkpt lat="27.8948978" lon="-15.6451345"><ele>983.0</ele><time>2026-05-02T11:43:17.991Z</time></trkpt><trkpt lat="27.8948661" lon="-15.6450437"><ele>982.4</ele><time>2026-05-02T11:43:19.991Z</time></trkpt><trkpt lat="27.894853" lon="-15.644941"><ele>981.8</ele><time>2026-05-02T11:43:21.992Z</time></trkpt><trkpt lat="27.8948515" lon="-15.6448511"><ele>981.2</ele><time>2026-05-02T11:43:23.99Z</time></trkpt><trkpt lat="27.8948424" lon="-15.6447593"><ele>980.6</ele><time>2026-05-02T11:43:25.991Z</time></trkpt><trkpt lat="27.8948112" lon="-15.6446459"><ele>980.0</ele><time>2026-05-02T11:43:27.991Z</time></trkpt><trkpt lat="27.894771" lon="-15.6445384"><ele>977.4</ele><time>2026-05-02T11:43:29.991Z</time></trkpt><trkpt lat="27.8947216" lon="-15.6444466"><ele>974.8</ele><time>2026-05-02T11:43:31.993Z</time></trkpt><trkpt lat="27.8946495" lon="-15.6443711"><ele>972.2</ele><time>2026-05-02T11:43:33.99Z</time></trkpt><trkpt lat="27.8945858" lon="-15.6442962"><ele>969.6</ele><time>2026-05-02T11:43:35.993Z</time></trkpt><trkpt lat="27.894565" lon="-15.6441578"><ele>967.0</ele><time>2026-05-02T11:43:37.991Z</time></trkpt><trkpt lat="27.894559" lon="-15.6440296"><ele>967.0</ele><time>2026-05-02T11:43:39.991Z</time></trkpt><trkpt lat="27.894482" lon="-15.6439192"><ele>967.0</ele><time>2026-05-02T11:43:41.993Z</time></trkpt><trkpt lat="27.8944222" lon="-15.6437789"><ele>967.0</ele><time>2026-05-02T11:43:43.992Z</time></trkpt><trkpt lat="27.8943957" lon="-15.6436979"><ele>967.0</ele><time>2026-05-02T11:43:44.991Z</time></trkpt><trkpt lat="27.8943773" lon="-15.6436255"><ele>967.0</ele><time>2026-05-02T11:43:45.993Z</time></trkpt><trkpt lat="27.8943527" lon="-15.6434998"><ele>967.6666666666666</ele><time>2026-05-02T11:43:47.992Z</time></trkpt><trkpt lat="27.8943651" lon="-15.6434023"><ele>968.3333333333333</ele><time>2026-05-02T11:43:49.99Z</time></trkpt><trkpt lat="27.8944206" lon="-15.6433365"><ele>969.0</ele><time>2026-05-02T11:43:51.99Z</time></trkpt><trkpt lat="27.8945011" lon="-15.6433406"><ele>969.6666666666667</ele><time>2026-05-02T11:43:53.992Z</time></trkpt><trkpt lat="27.8945809" lon="-15.6433047"><ele>970.3333333333334</ele><time>2026-05-02T11:43:55.992Z</time></trkpt><trkpt lat="27.8946146" lon="-15.6432117"><ele>971.0</ele><time>2026-05-02T11:43:57.993Z</time></trkpt><trkpt lat="27.8946159" lon="-15.6431253"><ele>971.0000000000001</ele><time>2026-05-02T11:43:59.991Z</time></trkpt><trkpt lat="27.8946259" lon="-15.6430354"><ele>971.0</ele><time>2026-05-02T11:44:01.991Z</time></trkpt><trkpt lat="27.8946683" lon="-15.6429393"><ele>971.0</ele><time>2026-05-02T11:44:03.991Z</time></trkpt><trkpt lat="27.8947298" lon="-15.6428651"><ele>971.0</ele><time>2026-05-02T11:44:05.992Z</time></trkpt><trkpt lat="27.8947961" lon="-15.6428031"><ele>971.0000000000001</ele><time>2026-05-02T11:44:07.991Z</time></trkpt><trkpt lat="27.8948791" lon="-15.6427714"><ele>971.0</ele><time>2026-05-02T11:44:09.991Z</time></trkpt><trkpt lat="27.8949666" lon="-15.6427804"><ele>967.1999999999999</ele><time>2026-05-02T11:44:11.992Z</time></trkpt><trkpt lat="27.8950637" lon="-15.6427935"><ele>963.3999999999999</ele><time>2026-05-02T11:44:13.992Z</time></trkpt><trkpt lat="27.895173" lon="-15.6428056"><ele>959.6</ele><time>2026-05-02T11:44:15.99Z</time></trkpt><trkpt lat="27.8952707" lon="-15.6428158"><ele>955.8</ele><time>2026-05-02T11:44:17.991Z</time></trkpt><trkpt lat="27.895369" lon="-15.642825"><ele>952.0</ele><time>2026-05-02T11:44:19.991Z</time></trkpt><trkpt lat="27.8954636" lon="-15.6428234"><ele>952.0</ele><time>2026-05-02T11:44:21.991Z</time></trkpt><trkpt lat="27.8955567" lon="-15.6428108"><ele>952.0</ele><time>2026-05-02T11:44:23.991Z</time></trkpt><trkpt lat="27.8956495" lon="-15.6428058"><ele>952.0</ele><time>2026-05-02T11:44:25.992Z</time></trkpt><trkpt lat="27.8957329" lon="-15.6427843"><ele>952.0</ele><time>2026-05-02T11:44:27.991Z</time></trkpt><trkpt lat="27.8958217" lon="-15.6427641"><ele>952.0</ele><time>2026-05-02T11:44:29.991Z</time></trkpt><trkpt lat="27.8959039" lon="-15.6427192"><ele>954.8333333333333</ele><time>2026-05-02T11:44:31.992Z</time></trkpt><trkpt lat="27.8959642" lon="-15.6426232"><ele>957.6666666666666</ele><time>2026-05-02T11:44:33.991Z</time></trkpt><trkpt lat="27.8959931" lon="-15.6425311"><ele>960.5</ele><time>2026-05-02T11:44:34.991Z</time></trkpt><trkpt lat="27.8960179" lon="-15.6424398"><ele>963.3333333333333</ele><time>2026-05-02T11:44:35.991Z</time></trkpt><trkpt lat="27.8960399" lon="-15.6423246"><ele>966.1666666666666</ele><time>2026-05-02T11:44:37.99Z</time></trkpt><trkpt lat="27.8960689" lon="-15.6422556"><ele>969.0</ele><time>2026-05-02T11:44:39.992Z</time></trkpt><trkpt lat="27.8961288" lon="-15.6422116"><ele>969.0</ele><time>2026-05-02T11:44:41.992Z</time></trkpt><trkpt lat="27.8962084" lon="-15.6422416"><ele>969.0000000000001</ele><time>2026-05-02T11:44:43.991Z</time></trkpt><trkpt lat="27.8962722" lon="-15.6423328"><ele>969.0000000000001</ele><time>2026-05-02T11:44:45.991Z</time></trkpt><trkpt lat="27.8963306" lon="-15.6424154"><ele>969.0</ele><time>2026-05-02T11:44:47.992Z</time></trkpt><trkpt lat="27.8963987" lon="-15.6424775"><ele>969.0</ele><time>2026-05-02T11:44:49.992Z</time></trkpt><trkpt lat="27.8964869" lon="-15.6425108"><ele>969.0</ele><time>2026-05-02T11:44:51.991Z</time></trkpt><trkpt lat="27.8966009" lon="-15.6424972"><ele>969.0000000000001</ele><time>2026-05-02T11:44:53.99Z</time></trkpt><trkpt lat="27.8967046" lon="-15.6424641"><ele>969.0000000000001</ele><time>2026-05-02T11:44:55.992Z</time></trkpt><trkpt lat="27.896785" lon="-15.6424119"><ele>969.0</ele><time>2026-05-02T11:44:57.991Z</time></trkpt><trkpt lat="27.8968681" lon="-15.6423684"><ele>969.0</ele><time>2026-05-02T11:44:59.992Z</time></trkpt><trkpt lat="27.8969443" lon="-15.6424107"><ele>969.6666666666666</ele><time>2026-05-02T11:45:01.991Z</time></trkpt><trkpt lat="27.8969867" lon="-15.6424854"><ele>970.3333333333333</ele><time>2026-05-02T11:45:02.991Z</time></trkpt><trkpt lat="27.8970277" lon="-15.6425706"><ele>971.0</ele><time>2026-05-02T11:45:03.991Z</time></trkpt><trkpt lat="27.8970548" lon="-15.6426717"><ele>971.6666666666666</ele><time>2026-05-02T11:45:04.992Z</time></trkpt><trkpt lat="27.8970797" lon="-15.6427532"><ele>972.3333333333333</ele><time>2026-05-02T11:45:05.991Z</time></trkpt><trkpt lat="27.8971244" lon="-15.6428582"><ele>973.0</ele><time>2026-05-02T11:45:07.993Z</time></trkpt><trkpt lat="27.8971638" lon="-15.6429352"><ele>969.9999999999999</ele><time>2026-05-02T11:45:09.991Z</time></trkpt><trkpt lat="27.8972528" lon="-15.6429738"><ele>967.0</ele><time>2026-05-02T11:45:11.991Z</time></trkpt><trkpt lat="27.8973229" lon="-15.6429705"><ele>964.0</ele><time>2026-05-02T11:45:12.992Z</time></trkpt><trkpt lat="27.8973935" lon="-15.6429638"><ele>961.0</ele><time>2026-05-02T11:45:13.992Z</time></trkpt><trkpt lat="27.8974677" lon="-15.6429281"><ele>957.9999999999999</ele><time>2026-05-02T11:45:14.991Z</time></trkpt><trkpt lat="27.897547" lon="-15.6428691"><ele>955.0</ele><time>2026-05-02T11:45:15.991Z</time></trkpt><trkpt lat="27.8976286" lon="-15.6428116"><ele>955.8333333333333</ele><time>2026-05-02T11:45:16.991Z</time></trkpt><trkpt lat="27.8976837" lon="-15.6427665"><ele>956.6666666666666</ele><time>2026-05-02T11:45:17.991Z</time></trkpt><trkpt lat="27.8977282" lon="-15.642713"><ele>957.5</ele><time>2026-05-02T11:45:18.992Z</time></trkpt><trkpt lat="27.8977973" lon="-15.6426188"><ele>958.3333333333333</ele><time>2026-05-02T11:45:20.991Z</time></trkpt><trkpt lat="27.8978765" lon="-15.6425431"><ele>959.1666666666666</ele><time>2026-05-02T11:45:22.992Z</time></trkpt><trkpt lat="27.8979598" lon="-15.6425228"><ele>960.0</ele><time>2026-05-02T11:45:23.99Z</time></trkpt><trkpt lat="27.8980245" lon="-15.6425184"><ele>960.0</ele><time>2026-05-02T11:45:24.992Z</time></trkpt><trkpt lat="27.8980928" lon="-15.6425341"><ele>960.0</ele><time>2026-05-02T11:45:25.992Z</time></trkpt><trkpt lat="27.8981562" lon="-15.642544"><ele>960.0</ele><time>2026-05-02T11:45:26.992Z</time></trkpt><trkpt lat="27.8982197" lon="-15.6425315"><ele>960.0</ele><time>2026-05-02T11:45:27.991Z</time></trkpt><trkpt lat="27.8982905" lon="-15.6425082"><ele>960.0</ele><time>2026-05-02T11:45:28.992Z</time></trkpt><trkpt lat="27.8983564" lon="-15.6424849"><ele>960.0</ele><time>2026-05-02T11:45:29.992Z</time></trkpt><trkpt lat="27.8984193" lon="-15.6424728"><ele>960.0</ele><time>2026-05-02T11:45:30.991Z</time></trkpt><trkpt lat="27.8985005" lon="-15.6424692"><ele>957.6</ele><time>2026-05-02T11:45:31.991Z</time></trkpt><trkpt lat="27.8985732" lon="-15.6424559"><ele>955.2</ele><time>2026-05-02T11:45:32.99Z</time></trkpt><trkpt lat="27.8986831" lon="-15.6424136"><ele>952.8</ele><time>2026-05-02T11:45:34.992Z</time></trkpt><trkpt lat="27.898762" lon="-15.6423452"><ele>950.4</ele><time>2026-05-02T11:45:36.991Z</time></trkpt><trkpt lat="27.8988028" lon="-15.6421996"><ele>948.0</ele><time>2026-05-02T11:45:38.992Z</time></trkpt><trkpt lat="27.8988095" lon="-15.6421156"><ele>948.0</ele><time>2026-05-02T11:45:39.991Z</time></trkpt><trkpt lat="27.8988125" lon="-15.642036"><ele>948.0</ele><time>2026-05-02T11:45:40.99Z</time></trkpt><trkpt lat="27.8988475" lon="-15.6419089"><ele>948.0</ele><time>2026-05-02T11:45:42.991Z</time></trkpt><trkpt lat="27.898926" lon="-15.6418361"><ele>948.0</ele><time>2026-05-02T11:45:44.992Z</time></trkpt><trkpt lat="27.8990179" lon="-15.6418295"><ele>948.0</ele><time>2026-05-02T11:45:46.992Z</time></trkpt><trkpt lat="27.8991001" lon="-15.6418688"><ele>950.5</ele><time>2026-05-02T11:45:48.991Z</time></trkpt><trkpt lat="27.89917" lon="-15.6419016"><ele>953.0</ele><time>2026-05-02T11:45:50.991Z</time></trkpt><trkpt lat="27.8992722" lon="-15.6419157"><ele>955.5</ele><time>2026-05-02T11:45:53.99Z</time></trkpt><trkpt lat="27.8993553" lon="-15.6419098"><ele>958.0</ele><time>2026-05-02T11:45:55.991Z</time></trkpt><trkpt lat="27.8994255" lon="-15.6418876"><ele>960.5</ele><time>2026-05-02T11:45:57.992Z</time></trkpt><trkpt lat="27.8995019" lon="-15.6418707"><ele>963.0</ele><time>2026-05-02T11:45:59.992Z</time></trkpt><trkpt lat="27.8996048" lon="-15.6418668"><ele>963.0</ele><time>2026-05-02T11:46:01.991Z</time></trkpt><trkpt lat="27.89967" lon="-15.641875"><ele>963.0</ele><time>2026-05-02T11:46:02.991Z</time></trkpt><trkpt lat="27.8997522" lon="-15.6418933"><ele>963.0</ele><time>2026-05-02T11:46:03.991Z</time></trkpt><trkpt lat="27.8998375" lon="-15.6419237"><ele>963.0</ele><time>2026-05-02T11:46:04.992Z</time></trkpt><trkpt lat="27.8999143" lon="-15.6419494"><ele>963.0</ele><time>2026-05-02T11:46:05.991Z</time></trkpt><trkpt lat="27.8999867" lon="-15.641979"><ele>963.0</ele><time>2026-05-02T11:46:06.992Z</time></trkpt><trkpt lat="27.9000519" lon="-15.6420066"><ele>956.2</ele><time>2026-05-02T11:46:07.991Z</time></trkpt><trkpt lat="27.9001121" lon="-15.6420391"><ele>949.4</ele><time>2026-05-02T11:46:08.991Z</time></trkpt><trkpt lat="27.900224" lon="-15.6420883"><ele>942.6000000000001</ele><time>2026-05-02T11:46:10.991Z</time></trkpt><trkpt lat="27.900321" lon="-15.6421344"><ele>935.8000000000001</ele><time>2026-05-02T11:46:12.991Z</time></trkpt><trkpt lat="27.900413" lon="-15.642179"><ele>929.0</ele><time>2026-05-02T11:46:14.99Z</time></trkpt><trkpt lat="27.9004995" lon="-15.6422174"><ele>929.0000000000001</ele><time>2026-05-02T11:46:16.991Z</time></trkpt><trkpt lat="27.9006017" lon="-15.6422087"><ele>929.0</ele><time>2026-05-02T11:46:18.991Z</time></trkpt><trkpt lat="27.9006796" lon="-15.6421478"><ele>929.0</ele><time>2026-05-02T11:46:20.991Z</time></trkpt><trkpt lat="27.9007155" lon="-15.6420561"><ele>929.0</ele><time>2026-05-02T11:46:23.991Z</time></trkpt><trkpt lat="27.9007506" lon="-15.6419954"><ele>929.0000000000001</ele><time>2026-05-02T11:46:25.99Z</time></trkpt><trkpt lat="27.9008278" lon="-15.6419636"><ele>929.0</ele><time>2026-05-02T11:46:27.99Z</time></trkpt><trkpt lat="27.9009135" lon="-15.6419694"><ele>929.5000000000001</ele><time>2026-05-02T11:46:29.992Z</time></trkpt><trkpt lat="27.9009907" lon="-15.641983"><ele>930.0</ele><time>2026-05-02T11:46:31.992Z</time></trkpt><trkpt lat="27.9010673" lon="-15.642018"><ele>930.5</ele><time>2026-05-02T11:46:35.991Z</time></trkpt><trkpt lat="27.9011555" lon="-15.6420206"><ele>931.0</ele><time>2026-05-02T11:46:38.992Z</time></trkpt><trkpt lat="27.9012172" lon="-15.641982"><ele>931.5000000000001</ele><time>2026-05-02T11:46:40.991Z</time></trkpt><trkpt lat="27.9012785" lon="-15.6419124"><ele>932.0</ele><time>2026-05-02T11:46:42.99Z</time></trkpt><trkpt lat="27.9013289" lon="-15.6418385"><ele>932.1666666666667</ele><time>2026-05-02T11:46:44.991Z</time></trkpt><trkpt lat="27.9013625" lon="-15.6417722"><ele>932.3333333333334</ele><time>2026-05-02T11:46:46.992Z</time></trkpt><trkpt lat="27.9013853" lon="-15.6417006"><ele>932.5</ele><time>2026-05-02T11:46:49.992Z</time></trkpt><trkpt lat="27.9013891" lon="-15.6416233"><ele>932.6666666666667</ele><time>2026-05-02T11:46:52.992Z</time></trkpt><trkpt lat="27.9014318" lon="-15.6415387"><ele>932.8333333333334</ele><time>2026-05-02T11:47:05.991Z</time></trkpt><trkpt lat="27.9014746" lon="-15.6414462"><ele>933.0</ele><time>2026-05-02T11:47:07.992Z</time></trkpt><trkpt lat="27.9015138" lon="-15.6413649"><ele>933.0</ele><time>2026-05-02T11:47:09.992Z</time></trkpt><trkpt lat="27.9015534" lon="-15.6412968"><ele>932.9999999999999</ele><time>2026-05-02T11:47:11.99Z</time></trkpt><trkpt lat="27.9015904" lon="-15.6412305"><ele>933.0</ele><time>2026-05-02T11:47:13.99Z</time></trkpt><trkpt lat="27.9016251" lon="-15.641158"><ele>933.0</ele><time>2026-05-02T11:47:15.991Z</time></trkpt><trkpt lat="27.9016702" lon="-15.6410859"><ele>932.9999999999999</ele><time>2026-05-02T11:47:17.99Z</time></trkpt><trkpt lat="27.9017236" lon="-15.6410157"><ele>933.0</ele><time>2026-05-02T11:47:19.991Z</time></trkpt><trkpt lat="27.9017719" lon="-15.6409583"><ele>933.0</ele><time>2026-05-02T11:47:21.991Z</time></trkpt><trkpt lat="27.9018312" lon="-15.6408937"><ele>931.4285714285713</ele><time>2026-05-02T11:47:24.99Z</time></trkpt><trkpt lat="27.9018988" lon="-15.6408384"><ele>929.8571428571428</ele><time>2026-05-02T11:47:28.992Z</time></trkpt><trkpt lat="27.901949" lon="-15.6407783"><ele>928.2857142857142</ele><time>2026-05-02T11:47:30.992Z</time></trkpt><trkpt lat="27.9020008" lon="-15.6407199"><ele>926.7142857142858</ele><time>2026-05-02T11:47:32.99Z</time></trkpt><trkpt lat="27.9020503" lon="-15.6406687"><ele>925.1428571428572</ele><time>2026-05-02T11:47:34.991Z</time></trkpt><trkpt lat="27.9021147" lon="-15.64063"><ele>923.5714285714287</ele><time>2026-05-02T11:47:36.99Z</time></trkpt><trkpt lat="27.9021895" lon="-15.6406185"><ele>922.0</ele><time>2026-05-02T11:47:38.992Z</time></trkpt><trkpt lat="27.90226" lon="-15.6406256"><ele>921.9999999999999</ele><time>2026-05-02T11:47:40.991Z</time></trkpt><trkpt lat="27.9023212" lon="-15.6406513"><ele>922.0</ele><time>2026-05-02T11:47:42.992Z</time></trkpt><trkpt lat="27.9023882" lon="-15.6406534"><ele>922.0</ele><time>2026-05-02T11:47:44.99Z</time></trkpt><trkpt lat="27.902488" lon="-15.6406246"><ele>922.0</ele><time>2026-05-02T11:47:46.99Z</time></trkpt><trkpt lat="27.9025708" lon="-15.6405918"><ele>921.9999999999999</ele><time>2026-05-02T11:47:48.991Z</time></trkpt><trkpt lat="27.9026495" lon="-15.6405299"><ele>922.0</ele><time>2026-05-02T11:47:50.992Z</time></trkpt><trkpt lat="27.9027033" lon="-15.640448"><ele>922.3333333333333</ele><time>2026-05-02T11:47:52.991Z</time></trkpt><trkpt lat="27.90273" lon="-15.6403653"><ele>922.6666666666666</ele><time>2026-05-02T11:47:54.99Z</time></trkpt><trkpt lat="27.9027703" lon="-15.640275"><ele>923.0</ele><time>2026-05-02T11:47:57.989Z</time></trkpt><trkpt lat="27.9028066" lon="-15.6402135"><ele>923.3333333333333</ele><time>2026-05-02T11:47:59.992Z</time></trkpt><trkpt lat="27.9028427" lon="-15.6401491"><ele>923.6666666666666</ele><time>2026-05-02T11:48:01.99Z</time></trkpt><trkpt lat="27.9029042" lon="-15.6400756"><ele>924.0</ele><time>2026-05-02T11:48:04.991Z</time></trkpt><trkpt lat="27.9029921" lon="-15.6400417"><ele>924.0</ele><time>2026-05-02T11:48:07.991Z</time></trkpt><trkpt lat="27.9030576" lon="-15.6400541"><ele>924.0</ele><time>2026-05-02T11:48:09.991Z</time></trkpt><trkpt lat="27.9031024" lon="-15.6401073"><ele>924.0</ele><time>2026-05-02T11:48:11.991Z</time></trkpt><trkpt lat="27.9031599" lon="-15.6401848"><ele>924.0</ele><time>2026-05-02T11:48:13.989Z</time></trkpt><trkpt lat="27.9032" lon="-15.640249"><ele>924.0</ele><time>2026-05-02T11:48:15.991Z</time></trkpt><trkpt lat="27.9032351" lon="-15.6403335"><ele>924.0</ele><time>2026-05-02T11:48:17.989Z</time></trkpt><trkpt lat="27.9032952" lon="-15.640402"><ele>922.3333333333334</ele><time>2026-05-02T11:48:19.992Z</time></trkpt><trkpt lat="27.9033578" lon="-15.6404669"><ele>920.6666666666667</ele><time>2026-05-02T11:48:21.99Z</time></trkpt><trkpt lat="27.9034265" lon="-15.6405147"><ele>919.0</ele><time>2026-05-02T11:48:23.99Z</time></trkpt><trkpt lat="27.903495" lon="-15.6405326"><ele>917.3333333333334</ele><time>2026-05-02T11:48:25.989Z</time></trkpt><trkpt lat="27.903591" lon="-15.6405256"><ele>915.6666666666667</ele><time>2026-05-02T11:48:27.99Z</time></trkpt><trkpt lat="27.9036928" lon="-15.6405134"><ele>914.0</ele><time>2026-05-02T11:48:29.989Z</time></trkpt><trkpt lat="27.9037655" lon="-15.6404884"><ele>913.1666666666667</ele><time>2026-05-02T11:48:31.991Z</time></trkpt><trkpt lat="27.9038458" lon="-15.6404691"><ele>912.3333333333334</ele><time>2026-05-02T11:48:33.991Z</time></trkpt><trkpt lat="27.9039174" lon="-15.6404541"><ele>911.5</ele><time>2026-05-02T11:48:35.992Z</time></trkpt><trkpt lat="27.9039878" lon="-15.6404401"><ele>910.6666666666667</ele><time>2026-05-02T11:48:37.991Z</time></trkpt><trkpt lat="27.9040693" lon="-15.6404222"><ele>909.8333333333334</ele><time>2026-05-02T11:48:39.991Z</time></trkpt><trkpt lat="27.9041578" lon="-15.6403932"><ele>909.0</ele><time>2026-05-02T11:48:41.99Z</time></trkpt><trkpt lat="27.9042587" lon="-15.6403457"><ele>908.3333333333334</ele><time>2026-05-02T11:48:43.992Z</time></trkpt><trkpt lat="27.9043574" lon="-15.6402858"><ele>907.6666666666667</ele><time>2026-05-02T11:48:45.991Z</time></trkpt><trkpt lat="27.9044628" lon="-15.6402059"><ele>907.0</ele><time>2026-05-02T11:48:47.991Z</time></trkpt><trkpt lat="27.9045227" lon="-15.6401592"><ele>906.3333333333334</ele><time>2026-05-02T11:48:48.991Z</time></trkpt><trkpt lat="27.904581" lon="-15.6401185"><ele>905.6666666666667</ele><time>2026-05-02T11:48:49.99Z</time></trkpt><trkpt lat="27.9046347" lon="-15.6400778"><ele>905.0</ele><time>2026-05-02T11:48:50.992Z</time></trkpt><trkpt lat="27.9047277" lon="-15.6400074"><ele>905.0000000000001</ele><time>2026-05-02T11:48:52.99Z</time></trkpt><trkpt lat="27.9047954" lon="-15.6399354"><ele>905.0</ele><time>2026-05-02T11:48:54.99Z</time></trkpt><trkpt lat="27.9048343" lon="-15.6398563"><ele>905.0</ele><time>2026-05-02T11:48:56.99Z</time></trkpt><trkpt lat="27.9048547" lon="-15.6397638"><ele>905.0</ele><time>2026-05-02T11:48:58.991Z</time></trkpt><trkpt lat="27.9048795" lon="-15.6396246"><ele>905.0000000000001</ele><time>2026-05-02T11:49:00.991Z</time></trkpt><trkpt lat="27.904895" lon="-15.6395544"><ele>905.0</ele><time>2026-05-02T11:49:01.989Z</time></trkpt><trkpt lat="27.9049247" lon="-15.6394329"><ele>910.0</ele><time>2026-05-02T11:49:03.991Z</time></trkpt><trkpt lat="27.9049502" lon="-15.6393483"><ele>910.0</ele><time>2026-05-02T11:49:05.992Z</time></trkpt><trkpt lat="27.9049563" lon="-15.6392667"><ele>910.0</ele><time>2026-05-02T11:49:08.992Z</time></trkpt></trkseg></trk></gpx>